<?xml version="1.0" encoding="UTF-8" standalone="no" ?>
<gpx xmlns="http://www.topografix.com/GPX/1/1" xmlns:xsi="http://www.w3.org/2001/XMLSchema-instance" xsi:schemaLocation="http://www.topografix.com/GPX/1/1 http://www.topografix.com/GPX/1/1/gpx.xsd" version="1.1" creator="VisuGPX - https://www.visugpx.com">
  <metadata>
    <name>14 juillet 2016 ida_ seule</name>
    <desc><![CDATA[rando nature]]></desc>
  </metadata>
  <trk>
    <name><![CDATA[Tracé actuel: 14 JUIL 2016 07:03]]></name>
    <trkseg>
      <trkpt lat="44.22925" lon="0.66901">
        <ele>66.47</ele>
        <time>2016-07-14T05:03:58Z</time>
      </trkpt>
      <trkpt lat="44.22918" lon="0.66897">
        <ele>66.95</ele>
        <time>2016-07-14T05:05:32Z</time>
      </trkpt>
      <trkpt lat="44.22906" lon="0.66886">
        <ele>66.95</ele>
        <time>2016-07-14T05:06:17Z</time>
      </trkpt>
      <trkpt lat="44.22901" lon="0.66901">
        <ele>65.51</ele>
        <time>2016-07-14T05:06:28Z</time>
      </trkpt>
      <trkpt lat="44.22895" lon="0.66913">
        <ele>64.55</ele>
        <time>2016-07-14T05:06:37Z</time>
      </trkpt>
      <trkpt lat="44.22891" lon="0.66925">
        <ele>64.07</ele>
        <time>2016-07-14T05:06:46Z</time>
      </trkpt>
      <trkpt lat="44.22888" lon="0.66937">
        <ele>63.58</ele>
        <time>2016-07-14T05:06:55Z</time>
      </trkpt>
      <trkpt lat="44.22892" lon="0.66951">
        <ele>63.58</ele>
        <time>2016-07-14T05:07:05Z</time>
      </trkpt>
      <trkpt lat="44.22899" lon="0.66967">
        <ele>63.58</ele>
        <time>2016-07-14T05:07:17Z</time>
      </trkpt>
      <trkpt lat="44.22905" lon="0.66979">
        <ele>63.58</ele>
        <time>2016-07-14T05:07:26Z</time>
      </trkpt>
      <trkpt lat="44.22912" lon="0.66989">
        <ele>63.58</ele>
        <time>2016-07-14T05:07:34Z</time>
      </trkpt>
      <trkpt lat="44.22918" lon="0.67001">
        <ele>63.58</ele>
        <time>2016-07-14T05:07:45Z</time>
      </trkpt>
      <trkpt lat="44.22924" lon="0.67012">
        <ele>63.58</ele>
        <time>2016-07-14T05:07:54Z</time>
      </trkpt>
      <trkpt lat="44.2293" lon="0.67023">
        <ele>63.58</ele>
        <time>2016-07-14T05:08:04Z</time>
      </trkpt>
      <trkpt lat="44.22939" lon="0.67029">
        <ele>63.58</ele>
        <time>2016-07-14T05:08:14Z</time>
      </trkpt>
      <trkpt lat="44.22947" lon="0.67039">
        <ele>64.55</ele>
        <time>2016-07-14T05:08:24Z</time>
      </trkpt>
      <trkpt lat="44.22954" lon="0.67051">
        <ele>65.51</ele>
        <time>2016-07-14T05:08:35Z</time>
      </trkpt>
      <trkpt lat="44.22961" lon="0.67063">
        <ele>65.51</ele>
        <time>2016-07-14T05:08:45Z</time>
      </trkpt>
      <trkpt lat="44.22967" lon="0.67074">
        <ele>65.99</ele>
        <time>2016-07-14T05:08:56Z</time>
      </trkpt>
      <trkpt lat="44.22973" lon="0.67086">
        <ele>65.99</ele>
        <time>2016-07-14T05:09:07Z</time>
      </trkpt>
      <trkpt lat="44.22981" lon="0.67097">
        <ele>66.47</ele>
        <time>2016-07-14T05:09:17Z</time>
      </trkpt>
      <trkpt lat="44.22988" lon="0.67111">
        <ele>66.95</ele>
        <time>2016-07-14T05:09:29Z</time>
      </trkpt>
      <trkpt lat="44.22994" lon="0.67122">
        <ele>67.43</ele>
        <time>2016-07-14T05:09:40Z</time>
      </trkpt>
      <trkpt lat="44.23001" lon="0.67132">
        <ele>68.39</ele>
        <time>2016-07-14T05:09:49Z</time>
      </trkpt>
      <trkpt lat="44.23008" lon="0.6714">
        <ele>68.87</ele>
        <time>2016-07-14T05:09:58Z</time>
      </trkpt>
      <trkpt lat="44.23015" lon="0.67152">
        <ele>69.35</ele>
        <time>2016-07-14T05:10:08Z</time>
      </trkpt>
      <trkpt lat="44.23021" lon="0.67163">
        <ele>69.83</ele>
        <time>2016-07-14T05:10:17Z</time>
      </trkpt>
      <trkpt lat="44.23027" lon="0.67173">
        <ele>70.31</ele>
        <time>2016-07-14T05:10:26Z</time>
      </trkpt>
      <trkpt lat="44.23032" lon="0.67187">
        <ele>70.31</ele>
        <time>2016-07-14T05:10:35Z</time>
      </trkpt>
      <trkpt lat="44.23038" lon="0.67196">
        <ele>70.31</ele>
        <time>2016-07-14T05:10:43Z</time>
      </trkpt>
      <trkpt lat="44.23042" lon="0.67207">
        <ele>70.31</ele>
        <time>2016-07-14T05:10:51Z</time>
      </trkpt>
      <trkpt lat="44.23049" lon="0.6722">
        <ele>69.83</ele>
        <time>2016-07-14T05:11:01Z</time>
      </trkpt>
      <trkpt lat="44.23056" lon="0.6723">
        <ele>68.87</ele>
        <time>2016-07-14T05:11:08Z</time>
      </trkpt>
      <trkpt lat="44.23063" lon="0.6724">
        <ele>67.91</ele>
        <time>2016-07-14T05:11:16Z</time>
      </trkpt>
      <trkpt lat="44.23068" lon="0.67249">
        <ele>67.91</ele>
        <time>2016-07-14T05:11:24Z</time>
      </trkpt>
      <trkpt lat="44.23073" lon="0.67259">
        <ele>67.43</ele>
        <time>2016-07-14T05:11:31Z</time>
      </trkpt>
      <trkpt lat="44.23075" lon="0.67273">
        <ele>67.43</ele>
        <time>2016-07-14T05:11:41Z</time>
      </trkpt>
      <trkpt lat="44.23077" lon="0.67288">
        <ele>67.43</ele>
        <time>2016-07-14T05:11:51Z</time>
      </trkpt>
      <trkpt lat="44.23079" lon="0.67302">
        <ele>67.43</ele>
        <time>2016-07-14T05:11:59Z</time>
      </trkpt>
      <trkpt lat="44.23082" lon="0.67315">
        <ele>66.95</ele>
        <time>2016-07-14T05:12:07Z</time>
      </trkpt>
      <trkpt lat="44.23084" lon="0.67328">
        <ele>66.47</ele>
        <time>2016-07-14T05:12:16Z</time>
      </trkpt>
      <trkpt lat="44.23089" lon="0.67344">
        <ele>66.47</ele>
        <time>2016-07-14T05:12:28Z</time>
      </trkpt>
      <trkpt lat="44.23095" lon="0.67357">
        <ele>65.99</ele>
        <time>2016-07-14T05:12:37Z</time>
      </trkpt>
      <trkpt lat="44.23102" lon="0.67365">
        <ele>65.99</ele>
        <time>2016-07-14T05:12:45Z</time>
      </trkpt>
      <trkpt lat="44.2311" lon="0.67373">
        <ele>65.99</ele>
        <time>2016-07-14T05:12:54Z</time>
      </trkpt>
      <trkpt lat="44.2312" lon="0.67378">
        <ele>65.99</ele>
        <time>2016-07-14T05:13:03Z</time>
      </trkpt>
      <trkpt lat="44.2313" lon="0.67384">
        <ele>65.99</ele>
        <time>2016-07-14T05:13:14Z</time>
      </trkpt>
      <trkpt lat="44.2314" lon="0.67378">
        <ele>67.43</ele>
        <time>2016-07-14T05:13:25Z</time>
      </trkpt>
      <trkpt lat="44.23151" lon="0.67374">
        <ele>67.91</ele>
        <time>2016-07-14T05:13:35Z</time>
      </trkpt>
      <trkpt lat="44.23161" lon="0.67366">
        <ele>68.87</ele>
        <time>2016-07-14T05:13:49Z</time>
      </trkpt>
      <trkpt lat="44.2317" lon="0.67361">
        <ele>69.35</ele>
        <time>2016-07-14T05:14:04Z</time>
      </trkpt>
      <trkpt lat="44.23181" lon="0.67363">
        <ele>70.31</ele>
        <time>2016-07-14T05:14:17Z</time>
      </trkpt>
      <trkpt lat="44.2319" lon="0.6737">
        <ele>70.31</ele>
        <time>2016-07-14T05:14:27Z</time>
      </trkpt>
      <trkpt lat="44.23198" lon="0.67381">
        <ele>70.31</ele>
        <time>2016-07-14T05:14:37Z</time>
      </trkpt>
      <trkpt lat="44.23206" lon="0.67392">
        <ele>70.31</ele>
        <time>2016-07-14T05:14:45Z</time>
      </trkpt>
      <trkpt lat="44.23211" lon="0.67403">
        <ele>70.31</ele>
        <time>2016-07-14T05:14:54Z</time>
      </trkpt>
      <trkpt lat="44.23216" lon="0.67415">
        <ele>70.31</ele>
        <time>2016-07-14T05:15:03Z</time>
      </trkpt>
      <trkpt lat="44.23221" lon="0.67427">
        <ele>70.31</ele>
        <time>2016-07-14T05:15:11Z</time>
      </trkpt>
      <trkpt lat="44.23227" lon="0.67438">
        <ele>68.87</ele>
        <time>2016-07-14T05:15:20Z</time>
      </trkpt>
      <trkpt lat="44.23234" lon="0.67452">
        <ele>67.91</ele>
        <time>2016-07-14T05:15:31Z</time>
      </trkpt>
      <trkpt lat="44.23242" lon="0.67462">
        <ele>67.43</ele>
        <time>2016-07-14T05:15:41Z</time>
      </trkpt>
      <trkpt lat="44.23251" lon="0.67469">
        <ele>67.43</ele>
        <time>2016-07-14T05:15:48Z</time>
      </trkpt>
      <trkpt lat="44.23259" lon="0.67478">
        <ele>67.43</ele>
        <time>2016-07-14T05:15:56Z</time>
      </trkpt>
      <trkpt lat="44.23267" lon="0.67484">
        <ele>67.43</ele>
        <time>2016-07-14T05:16:03Z</time>
      </trkpt>
      <trkpt lat="44.23275" lon="0.6749">
        <ele>67.43</ele>
        <time>2016-07-14T05:16:11Z</time>
      </trkpt>
      <trkpt lat="44.23283" lon="0.67498">
        <ele>66.47</ele>
        <time>2016-07-14T05:16:21Z</time>
      </trkpt>
      <trkpt lat="44.23291" lon="0.67506">
        <ele>66.47</ele>
        <time>2016-07-14T05:16:30Z</time>
      </trkpt>
      <trkpt lat="44.23299" lon="0.67514">
        <ele>66.47</ele>
        <time>2016-07-14T05:16:39Z</time>
      </trkpt>
      <trkpt lat="44.23308" lon="0.67523">
        <ele>66.47</ele>
        <time>2016-07-14T05:16:47Z</time>
      </trkpt>
      <trkpt lat="44.23317" lon="0.67531">
        <ele>66.47</ele>
        <time>2016-07-14T05:16:55Z</time>
      </trkpt>
      <trkpt lat="44.23324" lon="0.67542">
        <ele>66.47</ele>
        <time>2016-07-14T05:17:05Z</time>
      </trkpt>
      <trkpt lat="44.23332" lon="0.67551">
        <ele>66.47</ele>
        <time>2016-07-14T05:17:13Z</time>
      </trkpt>
      <trkpt lat="44.23338" lon="0.67561">
        <ele>66.47</ele>
        <time>2016-07-14T05:17:21Z</time>
      </trkpt>
      <trkpt lat="44.23344" lon="0.6757">
        <ele>66.47</ele>
        <time>2016-07-14T05:17:29Z</time>
      </trkpt>
      <trkpt lat="44.2335" lon="0.67581">
        <ele>66.47</ele>
        <time>2016-07-14T05:17:39Z</time>
      </trkpt>
      <trkpt lat="44.23356" lon="0.67591">
        <ele>66.47</ele>
        <time>2016-07-14T05:17:47Z</time>
      </trkpt>
      <trkpt lat="44.23363" lon="0.67602">
        <ele>66.47</ele>
        <time>2016-07-14T05:17:56Z</time>
      </trkpt>
      <trkpt lat="44.2337" lon="0.6761">
        <ele>65.99</ele>
        <time>2016-07-14T05:18:03Z</time>
      </trkpt>
      <trkpt lat="44.23377" lon="0.67618">
        <ele>65.99</ele>
        <time>2016-07-14T05:18:11Z</time>
      </trkpt>
      <trkpt lat="44.23383" lon="0.67627">
        <ele>65.99</ele>
        <time>2016-07-14T05:18:21Z</time>
      </trkpt>
      <trkpt lat="44.23392" lon="0.67635">
        <ele>65.99</ele>
        <time>2016-07-14T05:18:29Z</time>
      </trkpt>
      <trkpt lat="44.23401" lon="0.67641">
        <ele>65.99</ele>
        <time>2016-07-14T05:18:39Z</time>
      </trkpt>
      <trkpt lat="44.2341" lon="0.67645">
        <ele>65.99</ele>
        <time>2016-07-14T05:18:49Z</time>
      </trkpt>
      <trkpt lat="44.23416" lon="0.67656">
        <ele>65.51</ele>
        <time>2016-07-14T05:19:00Z</time>
      </trkpt>
      <trkpt lat="44.23425" lon="0.67664">
        <ele>65.51</ele>
        <time>2016-07-14T05:19:10Z</time>
      </trkpt>
      <trkpt lat="44.23434" lon="0.67667">
        <ele>65.51</ele>
        <time>2016-07-14T05:19:20Z</time>
      </trkpt>
      <trkpt lat="44.23444" lon="0.67675">
        <ele>65.51</ele>
        <time>2016-07-14T05:19:31Z</time>
      </trkpt>
      <trkpt lat="44.23452" lon="0.67687">
        <ele>65.51</ele>
        <time>2016-07-14T05:19:41Z</time>
      </trkpt>
      <trkpt lat="44.23454" lon="0.67699">
        <ele>65.51</ele>
        <time>2016-07-14T05:19:51Z</time>
      </trkpt>
      <trkpt lat="44.23459" lon="0.67711">
        <ele>65.51</ele>
        <time>2016-07-14T05:19:59Z</time>
      </trkpt>
      <trkpt lat="44.23455" lon="0.67724">
        <ele>65.51</ele>
        <time>2016-07-14T05:20:08Z</time>
      </trkpt>
      <trkpt lat="44.23456" lon="0.67737">
        <ele>65.51</ele>
        <time>2016-07-14T05:20:17Z</time>
      </trkpt>
      <trkpt lat="44.23464" lon="0.67741">
        <ele>65.03</ele>
        <time>2016-07-14T05:20:27Z</time>
      </trkpt>
      <trkpt lat="44.23475" lon="0.67745">
        <ele>65.03</ele>
        <time>2016-07-14T05:20:36Z</time>
      </trkpt>
      <trkpt lat="44.23485" lon="0.67747">
        <ele>65.03</ele>
        <time>2016-07-14T05:20:45Z</time>
      </trkpt>
      <trkpt lat="44.23496" lon="0.67752">
        <ele>64.55</ele>
        <time>2016-07-14T05:20:55Z</time>
      </trkpt>
      <trkpt lat="44.23507" lon="0.67757">
        <ele>64.55</ele>
        <time>2016-07-14T05:21:05Z</time>
      </trkpt>
      <trkpt lat="44.23518" lon="0.67763">
        <ele>64.55</ele>
        <time>2016-07-14T05:21:14Z</time>
      </trkpt>
      <trkpt lat="44.23529" lon="0.67767">
        <ele>64.07</ele>
        <time>2016-07-14T05:21:25Z</time>
      </trkpt>
      <trkpt lat="44.2354" lon="0.67773">
        <ele>64.07</ele>
        <time>2016-07-14T05:21:37Z</time>
      </trkpt>
      <trkpt lat="44.23556" lon="0.67777">
        <ele>64.07</ele>
        <time>2016-07-14T05:21:52Z</time>
      </trkpt>
      <trkpt lat="44.23571" lon="0.67782">
        <ele>64.07</ele>
        <time>2016-07-14T05:22:05Z</time>
      </trkpt>
      <trkpt lat="44.23586" lon="0.67785">
        <ele>65.03</ele>
        <time>2016-07-14T05:22:18Z</time>
      </trkpt>
      <trkpt lat="44.23601" lon="0.67786">
        <ele>65.51</ele>
        <time>2016-07-14T05:22:30Z</time>
      </trkpt>
      <trkpt lat="44.23616" lon="0.67787">
        <ele>65.51</ele>
        <time>2016-07-14T05:22:44Z</time>
      </trkpt>
      <trkpt lat="44.23632" lon="0.67787">
        <ele>65.51</ele>
        <time>2016-07-14T05:22:58Z</time>
      </trkpt>
      <trkpt lat="44.23646" lon="0.67787">
        <ele>65.51</ele>
        <time>2016-07-14T05:23:12Z</time>
      </trkpt>
      <trkpt lat="44.2366" lon="0.67787">
        <ele>65.99</ele>
        <time>2016-07-14T05:23:25Z</time>
      </trkpt>
      <trkpt lat="44.23673" lon="0.67788">
        <ele>65.99</ele>
        <time>2016-07-14T05:23:36Z</time>
      </trkpt>
      <trkpt lat="44.23687" lon="0.67787">
        <ele>65.99</ele>
        <time>2016-07-14T05:23:50Z</time>
      </trkpt>
      <trkpt lat="44.237" lon="0.67787">
        <ele>65.99</ele>
        <time>2016-07-14T05:24:02Z</time>
      </trkpt>
      <trkpt lat="44.23713" lon="0.67787">
        <ele>65.99</ele>
        <time>2016-07-14T05:24:12Z</time>
      </trkpt>
      <trkpt lat="44.23724" lon="0.67788">
        <ele>65.99</ele>
        <time>2016-07-14T05:24:22Z</time>
      </trkpt>
      <trkpt lat="44.23734" lon="0.67786">
        <ele>66.47</ele>
        <time>2016-07-14T05:24:31Z</time>
      </trkpt>
      <trkpt lat="44.23744" lon="0.67786">
        <ele>66.47</ele>
        <time>2016-07-14T05:24:40Z</time>
      </trkpt>
      <trkpt lat="44.23754" lon="0.67786">
        <ele>66.47</ele>
        <time>2016-07-14T05:24:49Z</time>
      </trkpt>
      <trkpt lat="44.23764" lon="0.67783">
        <ele>66.47</ele>
        <time>2016-07-14T05:24:59Z</time>
      </trkpt>
      <trkpt lat="44.23774" lon="0.67784">
        <ele>66.47</ele>
        <time>2016-07-14T05:25:09Z</time>
      </trkpt>
      <trkpt lat="44.23784" lon="0.67785">
        <ele>66.47</ele>
        <time>2016-07-14T05:25:18Z</time>
      </trkpt>
      <trkpt lat="44.23794" lon="0.67784">
        <ele>66.47</ele>
        <time>2016-07-14T05:25:27Z</time>
      </trkpt>
      <trkpt lat="44.23804" lon="0.67782">
        <ele>66.47</ele>
        <time>2016-07-14T05:25:36Z</time>
      </trkpt>
      <trkpt lat="44.23814" lon="0.67784">
        <ele>66.95</ele>
        <time>2016-07-14T05:25:45Z</time>
      </trkpt>
      <trkpt lat="44.23823" lon="0.67784">
        <ele>66.95</ele>
        <time>2016-07-14T05:25:53Z</time>
      </trkpt>
      <trkpt lat="44.23833" lon="0.67783">
        <ele>66.95</ele>
        <time>2016-07-14T05:26:02Z</time>
      </trkpt>
      <trkpt lat="44.23844" lon="0.67783">
        <ele>66.95</ele>
        <time>2016-07-14T05:26:13Z</time>
      </trkpt>
      <trkpt lat="44.23854" lon="0.67782">
        <ele>66.95</ele>
        <time>2016-07-14T05:26:24Z</time>
      </trkpt>
      <trkpt lat="44.23864" lon="0.67781">
        <ele>66.95</ele>
        <time>2016-07-14T05:26:34Z</time>
      </trkpt>
      <trkpt lat="44.23876" lon="0.67781">
        <ele>66.95</ele>
        <time>2016-07-14T05:26:45Z</time>
      </trkpt>
      <trkpt lat="44.23888" lon="0.67782">
        <ele>66.95</ele>
        <time>2016-07-14T05:27:03Z</time>
      </trkpt>
      <trkpt lat="44.23898" lon="0.67781">
        <ele>66.95</ele>
        <time>2016-07-14T05:27:14Z</time>
      </trkpt>
      <trkpt lat="44.23908" lon="0.6778">
        <ele>66.95</ele>
        <time>2016-07-14T05:27:25Z</time>
      </trkpt>
      <trkpt lat="44.23919" lon="0.6778">
        <ele>66.95</ele>
        <time>2016-07-14T05:27:37Z</time>
      </trkpt>
      <trkpt lat="44.23933" lon="0.67781">
        <ele>66.95</ele>
        <time>2016-07-14T05:27:51Z</time>
      </trkpt>
      <trkpt lat="44.23951" lon="0.67784">
        <ele>66.95</ele>
        <time>2016-07-14T05:28:09Z</time>
      </trkpt>
      <trkpt lat="44.23974" lon="0.67786">
        <ele>66.95</ele>
        <time>2016-07-14T05:28:34Z</time>
      </trkpt>
      <trkpt lat="44.23989" lon="0.67786">
        <ele>67.43</ele>
        <time>2016-07-14T05:28:46Z</time>
      </trkpt>
      <trkpt lat="44.24004" lon="0.67788">
        <ele>67.43</ele>
        <time>2016-07-14T05:28:56Z</time>
      </trkpt>
      <trkpt lat="44.24016" lon="0.6779">
        <ele>67.43</ele>
        <time>2016-07-14T05:29:06Z</time>
      </trkpt>
      <trkpt lat="44.24026" lon="0.67791">
        <ele>67.43</ele>
        <time>2016-07-14T05:29:15Z</time>
      </trkpt>
      <trkpt lat="44.24036" lon="0.67793">
        <ele>67.43</ele>
        <time>2016-07-14T05:29:25Z</time>
      </trkpt>
      <trkpt lat="44.24046" lon="0.67795">
        <ele>67.43</ele>
        <time>2016-07-14T05:29:34Z</time>
      </trkpt>
      <trkpt lat="44.24056" lon="0.67799">
        <ele>67.91</ele>
        <time>2016-07-14T05:29:44Z</time>
      </trkpt>
      <trkpt lat="44.24066" lon="0.67803">
        <ele>67.91</ele>
        <time>2016-07-14T05:29:53Z</time>
      </trkpt>
      <trkpt lat="44.24075" lon="0.67805">
        <ele>67.91</ele>
        <time>2016-07-14T05:30:02Z</time>
      </trkpt>
      <trkpt lat="44.24085" lon="0.67807">
        <ele>67.91</ele>
        <time>2016-07-14T05:30:12Z</time>
      </trkpt>
      <trkpt lat="44.24094" lon="0.6781">
        <ele>68.39</ele>
        <time>2016-07-14T05:30:22Z</time>
      </trkpt>
      <trkpt lat="44.24103" lon="0.67814">
        <ele>68.39</ele>
        <time>2016-07-14T05:30:32Z</time>
      </trkpt>
      <trkpt lat="44.24112" lon="0.6782">
        <ele>68.39</ele>
        <time>2016-07-14T05:30:42Z</time>
      </trkpt>
      <trkpt lat="44.24126" lon="0.67826">
        <ele>68.39</ele>
        <time>2016-07-14T05:30:56Z</time>
      </trkpt>
      <trkpt lat="44.24139" lon="0.67833">
        <ele>68.39</ele>
        <time>2016-07-14T05:31:08Z</time>
      </trkpt>
      <trkpt lat="44.24152" lon="0.67839">
        <ele>68.39</ele>
        <time>2016-07-14T05:31:19Z</time>
      </trkpt>
      <trkpt lat="44.24161" lon="0.67845">
        <ele>68.39</ele>
        <time>2016-07-14T05:31:31Z</time>
      </trkpt>
      <trkpt lat="44.24183" lon="0.67857">
        <ele>68.39</ele>
        <time>2016-07-14T05:31:51Z</time>
      </trkpt>
      <trkpt lat="44.24194" lon="0.67864">
        <ele>68.39</ele>
        <time>2016-07-14T05:32:03Z</time>
      </trkpt>
      <trkpt lat="44.24206" lon="0.67873">
        <ele>68.39</ele>
        <time>2016-07-14T05:32:15Z</time>
      </trkpt>
      <trkpt lat="44.24218" lon="0.6788">
        <ele>68.39</ele>
        <time>2016-07-14T05:32:27Z</time>
      </trkpt>
      <trkpt lat="44.2423" lon="0.67888">
        <ele>68.39</ele>
        <time>2016-07-14T05:32:40Z</time>
      </trkpt>
      <trkpt lat="44.24248" lon="0.67899">
        <ele>68.39</ele>
        <time>2016-07-14T05:32:57Z</time>
      </trkpt>
      <trkpt lat="44.2426" lon="0.67907">
        <ele>68.39</ele>
        <time>2016-07-14T05:33:09Z</time>
      </trkpt>
      <trkpt lat="44.2427" lon="0.67914">
        <ele>68.39</ele>
        <time>2016-07-14T05:33:18Z</time>
      </trkpt>
      <trkpt lat="44.24278" lon="0.67921">
        <ele>68.39</ele>
        <time>2016-07-14T05:33:26Z</time>
      </trkpt>
      <trkpt lat="44.24286" lon="0.67927">
        <ele>68.39</ele>
        <time>2016-07-14T05:33:34Z</time>
      </trkpt>
      <trkpt lat="44.24294" lon="0.67933">
        <ele>68.39</ele>
        <time>2016-07-14T05:33:42Z</time>
      </trkpt>
      <trkpt lat="44.24302" lon="0.67937">
        <ele>68.87</ele>
        <time>2016-07-14T05:33:52Z</time>
      </trkpt>
      <trkpt lat="44.24312" lon="0.67941">
        <ele>68.87</ele>
        <time>2016-07-14T05:34:01Z</time>
      </trkpt>
      <trkpt lat="44.2432" lon="0.67946">
        <ele>68.87</ele>
        <time>2016-07-14T05:34:10Z</time>
      </trkpt>
      <trkpt lat="44.2433" lon="0.67951">
        <ele>68.87</ele>
        <time>2016-07-14T05:34:20Z</time>
      </trkpt>
      <trkpt lat="44.24338" lon="0.67956">
        <ele>68.87</ele>
        <time>2016-07-14T05:34:29Z</time>
      </trkpt>
      <trkpt lat="44.24347" lon="0.6796">
        <ele>69.35</ele>
        <time>2016-07-14T05:34:38Z</time>
      </trkpt>
      <trkpt lat="44.24356" lon="0.67965">
        <ele>69.35</ele>
        <time>2016-07-14T05:34:48Z</time>
      </trkpt>
      <trkpt lat="44.24365" lon="0.6797">
        <ele>69.83</ele>
        <time>2016-07-14T05:34:58Z</time>
      </trkpt>
      <trkpt lat="44.24374" lon="0.67977">
        <ele>69.83</ele>
        <time>2016-07-14T05:35:08Z</time>
      </trkpt>
      <trkpt lat="44.24383" lon="0.67983">
        <ele>69.83</ele>
        <time>2016-07-14T05:35:18Z</time>
      </trkpt>
      <trkpt lat="44.24392" lon="0.67988">
        <ele>69.83</ele>
        <time>2016-07-14T05:35:27Z</time>
      </trkpt>
      <trkpt lat="44.24401" lon="0.67994">
        <ele>69.83</ele>
        <time>2016-07-14T05:35:37Z</time>
      </trkpt>
      <trkpt lat="44.24411" lon="0.67999">
        <ele>70.31</ele>
        <time>2016-07-14T05:35:48Z</time>
      </trkpt>
      <trkpt lat="44.2442" lon="0.68004">
        <ele>70.79</ele>
        <time>2016-07-14T05:35:57Z</time>
      </trkpt>
      <trkpt lat="44.24429" lon="0.6801">
        <ele>71.27</ele>
        <time>2016-07-14T05:36:07Z</time>
      </trkpt>
      <trkpt lat="44.24439" lon="0.68016">
        <ele>71.76</ele>
        <time>2016-07-14T05:36:17Z</time>
      </trkpt>
      <trkpt lat="44.24448" lon="0.68023">
        <ele>71.76</ele>
        <time>2016-07-14T05:36:27Z</time>
      </trkpt>
      <trkpt lat="44.24457" lon="0.68029">
        <ele>71.76</ele>
        <time>2016-07-14T05:36:37Z</time>
      </trkpt>
      <trkpt lat="44.24465" lon="0.68035">
        <ele>71.76</ele>
        <time>2016-07-14T05:36:53Z</time>
      </trkpt>
      <trkpt lat="44.24474" lon="0.68045">
        <ele>71.76</ele>
        <time>2016-07-14T05:37:11Z</time>
      </trkpt>
      <trkpt lat="44.24484" lon="0.68049">
        <ele>70.79</ele>
        <time>2016-07-14T05:37:22Z</time>
      </trkpt>
      <trkpt lat="44.24492" lon="0.68055">
        <ele>70.31</ele>
        <time>2016-07-14T05:37:31Z</time>
      </trkpt>
      <trkpt lat="44.24502" lon="0.68062">
        <ele>69.83</ele>
        <time>2016-07-14T05:37:44Z</time>
      </trkpt>
      <trkpt lat="44.24513" lon="0.6807">
        <ele>69.35</ele>
        <time>2016-07-14T05:37:55Z</time>
      </trkpt>
      <trkpt lat="44.24527" lon="0.6808">
        <ele>69.35</ele>
        <time>2016-07-14T05:38:13Z</time>
      </trkpt>
      <trkpt lat="44.24541" lon="0.68091">
        <ele>68.87</ele>
        <time>2016-07-14T05:38:28Z</time>
      </trkpt>
      <trkpt lat="44.24555" lon="0.68102">
        <ele>68.87</ele>
        <time>2016-07-14T05:38:42Z</time>
      </trkpt>
      <trkpt lat="44.24568" lon="0.68113">
        <ele>68.87</ele>
        <time>2016-07-14T05:38:52Z</time>
      </trkpt>
      <trkpt lat="44.24577" lon="0.6812">
        <ele>68.87</ele>
        <time>2016-07-14T05:39:01Z</time>
      </trkpt>
      <trkpt lat="44.24585" lon="0.68127">
        <ele>68.87</ele>
        <time>2016-07-14T05:39:09Z</time>
      </trkpt>
      <trkpt lat="44.24593" lon="0.68134">
        <ele>68.87</ele>
        <time>2016-07-14T05:39:19Z</time>
      </trkpt>
      <trkpt lat="44.24601" lon="0.6814">
        <ele>68.87</ele>
        <time>2016-07-14T05:39:28Z</time>
      </trkpt>
      <trkpt lat="44.24609" lon="0.68146">
        <ele>68.87</ele>
        <time>2016-07-14T05:39:37Z</time>
      </trkpt>
      <trkpt lat="44.24618" lon="0.68151">
        <ele>68.87</ele>
        <time>2016-07-14T05:39:46Z</time>
      </trkpt>
      <trkpt lat="44.24627" lon="0.68158">
        <ele>70.79</ele>
        <time>2016-07-14T05:39:56Z</time>
      </trkpt>
      <trkpt lat="44.24636" lon="0.68166">
        <ele>70.79</ele>
        <time>2016-07-14T05:40:07Z</time>
      </trkpt>
      <trkpt lat="44.24644" lon="0.68172">
        <ele>71.76</ele>
        <time>2016-07-14T05:40:17Z</time>
      </trkpt>
      <trkpt lat="44.24652" lon="0.6818">
        <ele>71.76</ele>
        <time>2016-07-14T05:40:27Z</time>
      </trkpt>
      <trkpt lat="44.24661" lon="0.68187">
        <ele>72.24</ele>
        <time>2016-07-14T05:40:37Z</time>
      </trkpt>
      <trkpt lat="44.24669" lon="0.68193">
        <ele>72.72</ele>
        <time>2016-07-14T05:40:47Z</time>
      </trkpt>
      <trkpt lat="44.24676" lon="0.68201">
        <ele>73.2</ele>
        <time>2016-07-14T05:40:56Z</time>
      </trkpt>
      <trkpt lat="44.24684" lon="0.68209">
        <ele>73.2</ele>
        <time>2016-07-14T05:41:05Z</time>
      </trkpt>
      <trkpt lat="44.24692" lon="0.68216">
        <ele>73.68</ele>
        <time>2016-07-14T05:41:15Z</time>
      </trkpt>
      <trkpt lat="44.247" lon="0.68223">
        <ele>73.68</ele>
        <time>2016-07-14T05:41:25Z</time>
      </trkpt>
      <trkpt lat="44.2471" lon="0.68229">
        <ele>73.68</ele>
        <time>2016-07-14T05:41:34Z</time>
      </trkpt>
      <trkpt lat="44.24718" lon="0.68237">
        <ele>73.68</ele>
        <time>2016-07-14T05:41:43Z</time>
      </trkpt>
      <trkpt lat="44.24726" lon="0.68244">
        <ele>73.68</ele>
        <time>2016-07-14T05:41:52Z</time>
      </trkpt>
      <trkpt lat="44.24735" lon="0.68252">
        <ele>72.72</ele>
        <time>2016-07-14T05:42:01Z</time>
      </trkpt>
      <trkpt lat="44.24744" lon="0.68259">
        <ele>72.72</ele>
        <time>2016-07-14T05:42:13Z</time>
      </trkpt>
      <trkpt lat="44.24752" lon="0.68268">
        <ele>72.72</ele>
        <time>2016-07-14T05:42:25Z</time>
      </trkpt>
      <trkpt lat="44.24759" lon="0.68276">
        <ele>72.24</ele>
        <time>2016-07-14T05:43:57Z</time>
      </trkpt>
      <trkpt lat="44.2477" lon="0.68277">
        <ele>72.72</ele>
        <time>2016-07-14T05:44:09Z</time>
      </trkpt>
      <trkpt lat="44.24772" lon="0.68276">
        <ele>74.64</ele>
        <time>2016-07-14T06:00:33Z</time>
      </trkpt>
      <trkpt lat="44.24784" lon="0.68267">
        <ele>75.12</ele>
        <time>2016-07-14T06:00:44Z</time>
      </trkpt>
      <trkpt lat="44.24792" lon="0.68258">
        <ele>75.6</ele>
        <time>2016-07-14T06:00:54Z</time>
      </trkpt>
      <trkpt lat="44.24801" lon="0.6825">
        <ele>76.56</ele>
        <time>2016-07-14T06:01:04Z</time>
      </trkpt>
      <trkpt lat="44.2481" lon="0.68241">
        <ele>77.52</ele>
        <time>2016-07-14T06:01:14Z</time>
      </trkpt>
      <trkpt lat="44.24817" lon="0.68234">
        <ele>78.48</ele>
        <time>2016-07-14T06:01:23Z</time>
      </trkpt>
      <trkpt lat="44.24826" lon="0.68227">
        <ele>78.97</ele>
        <time>2016-07-14T06:01:33Z</time>
      </trkpt>
      <trkpt lat="44.24834" lon="0.6822">
        <ele>79.93</ele>
        <time>2016-07-14T06:01:44Z</time>
      </trkpt>
      <trkpt lat="44.24842" lon="0.68211">
        <ele>80.41</ele>
        <time>2016-07-14T06:01:55Z</time>
      </trkpt>
      <trkpt lat="44.24849" lon="0.68203">
        <ele>81.85</ele>
        <time>2016-07-14T06:02:06Z</time>
      </trkpt>
      <trkpt lat="44.24857" lon="0.68195">
        <ele>82.81</ele>
        <time>2016-07-14T06:02:18Z</time>
      </trkpt>
      <trkpt lat="44.24865" lon="0.68188">
        <ele>83.29</ele>
        <time>2016-07-14T06:02:31Z</time>
      </trkpt>
      <trkpt lat="44.24875" lon="0.68185">
        <ele>84.73</ele>
        <time>2016-07-14T06:02:46Z</time>
      </trkpt>
      <trkpt lat="44.24882" lon="0.68192">
        <ele>86.18</ele>
        <time>2016-07-14T06:02:56Z</time>
      </trkpt>
      <trkpt lat="44.24889" lon="0.68202">
        <ele>87.14</ele>
        <time>2016-07-14T06:03:06Z</time>
      </trkpt>
      <trkpt lat="44.24895" lon="0.68211">
        <ele>87.62</ele>
        <time>2016-07-14T06:03:16Z</time>
      </trkpt>
      <trkpt lat="44.24902" lon="0.68219">
        <ele>88.58</ele>
        <time>2016-07-14T06:03:31Z</time>
      </trkpt>
      <trkpt lat="44.24908" lon="0.68231">
        <ele>88.58</ele>
        <time>2016-07-14T06:03:43Z</time>
      </trkpt>
      <trkpt lat="44.24914" lon="0.68239">
        <ele>89.06</ele>
        <time>2016-07-14T06:03:52Z</time>
      </trkpt>
      <trkpt lat="44.24921" lon="0.68249">
        <ele>89.54</ele>
        <time>2016-07-14T06:04:01Z</time>
      </trkpt>
      <trkpt lat="44.24929" lon="0.68258">
        <ele>89.54</ele>
        <time>2016-07-14T06:04:10Z</time>
      </trkpt>
      <trkpt lat="44.24936" lon="0.68267">
        <ele>90.02</ele>
        <time>2016-07-14T06:04:19Z</time>
      </trkpt>
      <trkpt lat="44.24942" lon="0.68278">
        <ele>90.5</ele>
        <time>2016-07-14T06:04:28Z</time>
      </trkpt>
      <trkpt lat="44.24948" lon="0.68288">
        <ele>90.5</ele>
        <time>2016-07-14T06:04:37Z</time>
      </trkpt>
      <trkpt lat="44.24956" lon="0.68297">
        <ele>90.5</ele>
        <time>2016-07-14T06:04:46Z</time>
      </trkpt>
      <trkpt lat="44.24963" lon="0.68307">
        <ele>90.5</ele>
        <time>2016-07-14T06:04:55Z</time>
      </trkpt>
      <trkpt lat="44.24971" lon="0.68314">
        <ele>90.5</ele>
        <time>2016-07-14T06:05:02Z</time>
      </trkpt>
      <trkpt lat="44.24977" lon="0.68325">
        <ele>90.5</ele>
        <time>2016-07-14T06:05:10Z</time>
      </trkpt>
      <trkpt lat="44.24984" lon="0.68333">
        <ele>90.5</ele>
        <time>2016-07-14T06:05:17Z</time>
      </trkpt>
      <trkpt lat="44.2499" lon="0.68344">
        <ele>90.5</ele>
        <time>2016-07-14T06:05:25Z</time>
      </trkpt>
      <trkpt lat="44.24996" lon="0.68353">
        <ele>90.5</ele>
        <time>2016-07-14T06:05:32Z</time>
      </trkpt>
      <trkpt lat="44.25001" lon="0.68364">
        <ele>89.06</ele>
        <time>2016-07-14T06:05:41Z</time>
      </trkpt>
      <trkpt lat="44.25006" lon="0.68376">
        <ele>89.06</ele>
        <time>2016-07-14T06:05:49Z</time>
      </trkpt>
      <trkpt lat="44.2501" lon="0.68387">
        <ele>88.58</ele>
        <time>2016-07-14T06:05:57Z</time>
      </trkpt>
      <trkpt lat="44.25016" lon="0.68399">
        <ele>88.1</ele>
        <time>2016-07-14T06:06:06Z</time>
      </trkpt>
      <trkpt lat="44.2502" lon="0.68409">
        <ele>87.62</ele>
        <time>2016-07-14T06:06:13Z</time>
      </trkpt>
      <trkpt lat="44.25024" lon="0.68421">
        <ele>87.62</ele>
        <time>2016-07-14T06:06:22Z</time>
      </trkpt>
      <trkpt lat="44.25031" lon="0.6843">
        <ele>87.14</ele>
        <time>2016-07-14T06:06:30Z</time>
      </trkpt>
      <trkpt lat="44.25041" lon="0.6843">
        <ele>88.58</ele>
        <time>2016-07-14T06:06:41Z</time>
      </trkpt>
      <trkpt lat="44.2505" lon="0.68426">
        <ele>90.02</ele>
        <time>2016-07-14T06:06:52Z</time>
      </trkpt>
      <trkpt lat="44.25059" lon="0.68421">
        <ele>90.98</ele>
        <time>2016-07-14T06:07:14Z</time>
      </trkpt>
      <trkpt lat="44.25068" lon="0.68416">
        <ele>92.9</ele>
        <time>2016-07-14T06:07:30Z</time>
      </trkpt>
      <trkpt lat="44.25078" lon="0.68411">
        <ele>95.31</ele>
        <time>2016-07-14T06:07:46Z</time>
      </trkpt>
      <trkpt lat="44.25088" lon="0.68406">
        <ele>96.75</ele>
        <time>2016-07-14T06:08:09Z</time>
      </trkpt>
      <trkpt lat="44.25099" lon="0.68402">
        <ele>97.71</ele>
        <time>2016-07-14T06:08:30Z</time>
      </trkpt>
      <trkpt lat="44.2511" lon="0.68397">
        <ele>100.11</ele>
        <time>2016-07-14T06:08:43Z</time>
      </trkpt>
      <trkpt lat="44.25123" lon="0.6839">
        <ele>100.11</ele>
        <time>2016-07-14T06:08:57Z</time>
      </trkpt>
      <trkpt lat="44.25137" lon="0.68396">
        <ele>100.11</ele>
        <time>2016-07-14T06:09:10Z</time>
      </trkpt>
      <trkpt lat="44.25148" lon="0.68397">
        <ele>98.67</ele>
        <time>2016-07-14T06:09:18Z</time>
      </trkpt>
      <trkpt lat="44.25157" lon="0.68394">
        <ele>98.19</ele>
        <time>2016-07-14T06:09:26Z</time>
      </trkpt>
      <trkpt lat="44.25167" lon="0.68391">
        <ele>97.71</ele>
        <time>2016-07-14T06:09:35Z</time>
      </trkpt>
      <trkpt lat="44.25176" lon="0.68389">
        <ele>97.23</ele>
        <time>2016-07-14T06:09:42Z</time>
      </trkpt>
      <trkpt lat="44.25184" lon="0.68383">
        <ele>97.23</ele>
        <time>2016-07-14T06:09:50Z</time>
      </trkpt>
      <trkpt lat="44.25194" lon="0.68376">
        <ele>96.75</ele>
        <time>2016-07-14T06:10:00Z</time>
      </trkpt>
      <trkpt lat="44.25203" lon="0.68369">
        <ele>96.27</ele>
        <time>2016-07-14T06:10:08Z</time>
      </trkpt>
      <trkpt lat="44.25212" lon="0.68365">
        <ele>95.79</ele>
        <time>2016-07-14T06:10:17Z</time>
      </trkpt>
      <trkpt lat="44.25221" lon="0.68358">
        <ele>95.79</ele>
        <time>2016-07-14T06:10:26Z</time>
      </trkpt>
      <trkpt lat="44.25229" lon="0.68351">
        <ele>95.31</ele>
        <time>2016-07-14T06:10:34Z</time>
      </trkpt>
      <trkpt lat="44.25239" lon="0.68345">
        <ele>94.83</ele>
        <time>2016-07-14T06:10:43Z</time>
      </trkpt>
      <trkpt lat="44.25248" lon="0.68339">
        <ele>94.35</ele>
        <time>2016-07-14T06:10:51Z</time>
      </trkpt>
      <trkpt lat="44.25256" lon="0.68333">
        <ele>93.87</ele>
        <time>2016-07-14T06:10:58Z</time>
      </trkpt>
      <trkpt lat="44.25265" lon="0.68327">
        <ele>93.87</ele>
        <time>2016-07-14T06:11:07Z</time>
      </trkpt>
      <trkpt lat="44.25274" lon="0.6832">
        <ele>93.39</ele>
        <time>2016-07-14T06:11:15Z</time>
      </trkpt>
      <trkpt lat="44.25281" lon="0.68314">
        <ele>92.9</ele>
        <time>2016-07-14T06:11:23Z</time>
      </trkpt>
      <trkpt lat="44.2529" lon="0.68308">
        <ele>92.42</ele>
        <time>2016-07-14T06:11:32Z</time>
      </trkpt>
      <trkpt lat="44.253" lon="0.68302">
        <ele>92.42</ele>
        <time>2016-07-14T06:11:40Z</time>
      </trkpt>
      <trkpt lat="44.25308" lon="0.68296">
        <ele>91.94</ele>
        <time>2016-07-14T06:11:49Z</time>
      </trkpt>
      <trkpt lat="44.25319" lon="0.68291">
        <ele>91.94</ele>
        <time>2016-07-14T06:11:59Z</time>
      </trkpt>
      <trkpt lat="44.2533" lon="0.68284">
        <ele>91.46</ele>
        <time>2016-07-14T06:12:08Z</time>
      </trkpt>
      <trkpt lat="44.25339" lon="0.68277">
        <ele>90.98</ele>
        <time>2016-07-14T06:12:17Z</time>
      </trkpt>
      <trkpt lat="44.25348" lon="0.68269">
        <ele>90.5</ele>
        <time>2016-07-14T06:12:26Z</time>
      </trkpt>
      <trkpt lat="44.25361" lon="0.68258">
        <ele>89.54</ele>
        <time>2016-07-14T06:12:41Z</time>
      </trkpt>
      <trkpt lat="44.25381" lon="0.68244">
        <ele>89.54</ele>
        <time>2016-07-14T06:13:01Z</time>
      </trkpt>
      <trkpt lat="44.25391" lon="0.68236">
        <ele>89.06</ele>
        <time>2016-07-14T06:13:12Z</time>
      </trkpt>
      <trkpt lat="44.25401" lon="0.68235">
        <ele>89.06</ele>
        <time>2016-07-14T06:13:23Z</time>
      </trkpt>
      <trkpt lat="44.25412" lon="0.6823">
        <ele>90.5</ele>
        <time>2016-07-14T06:13:33Z</time>
      </trkpt>
      <trkpt lat="44.25422" lon="0.68221">
        <ele>90.5</ele>
        <time>2016-07-14T06:13:44Z</time>
      </trkpt>
      <trkpt lat="44.25433" lon="0.68211">
        <ele>91.94</ele>
        <time>2016-07-14T06:13:54Z</time>
      </trkpt>
      <trkpt lat="44.25442" lon="0.68202">
        <ele>92.42</ele>
        <time>2016-07-14T06:14:04Z</time>
      </trkpt>
      <trkpt lat="44.25452" lon="0.68196">
        <ele>92.42</ele>
        <time>2016-07-14T06:14:13Z</time>
      </trkpt>
      <trkpt lat="44.25461" lon="0.68188">
        <ele>92.42</ele>
        <time>2016-07-14T06:14:22Z</time>
      </trkpt>
      <trkpt lat="44.2547" lon="0.6818">
        <ele>92.9</ele>
        <time>2016-07-14T06:14:32Z</time>
      </trkpt>
      <trkpt lat="44.25478" lon="0.68172">
        <ele>92.9</ele>
        <time>2016-07-14T06:14:43Z</time>
      </trkpt>
      <trkpt lat="44.25489" lon="0.68165">
        <ele>94.35</ele>
        <time>2016-07-14T06:14:55Z</time>
      </trkpt>
      <trkpt lat="44.25499" lon="0.6816">
        <ele>94.83</ele>
        <time>2016-07-14T06:15:05Z</time>
      </trkpt>
      <trkpt lat="44.2551" lon="0.68154">
        <ele>94.83</ele>
        <time>2016-07-14T06:15:17Z</time>
      </trkpt>
      <trkpt lat="44.25521" lon="0.68145">
        <ele>94.35</ele>
        <time>2016-07-14T06:15:28Z</time>
      </trkpt>
      <trkpt lat="44.25531" lon="0.68137">
        <ele>94.35</ele>
        <time>2016-07-14T06:15:39Z</time>
      </trkpt>
      <trkpt lat="44.2554" lon="0.68127">
        <ele>94.35</ele>
        <time>2016-07-14T06:15:49Z</time>
      </trkpt>
      <trkpt lat="44.25549" lon="0.68121">
        <ele>94.35</ele>
        <time>2016-07-14T06:15:59Z</time>
      </trkpt>
      <trkpt lat="44.2556" lon="0.68116">
        <ele>94.35</ele>
        <time>2016-07-14T06:16:10Z</time>
      </trkpt>
      <trkpt lat="44.25571" lon="0.68113">
        <ele>94.35</ele>
        <time>2016-07-14T06:16:20Z</time>
      </trkpt>
      <trkpt lat="44.2558" lon="0.68111">
        <ele>94.35</ele>
        <time>2016-07-14T06:16:30Z</time>
      </trkpt>
      <trkpt lat="44.25589" lon="0.68107">
        <ele>94.35</ele>
        <time>2016-07-14T06:16:40Z</time>
      </trkpt>
      <trkpt lat="44.256" lon="0.68105">
        <ele>94.83</ele>
        <time>2016-07-14T06:16:56Z</time>
      </trkpt>
      <trkpt lat="44.25609" lon="0.68103">
        <ele>94.83</ele>
        <time>2016-07-14T06:17:05Z</time>
      </trkpt>
      <trkpt lat="44.25618" lon="0.68102">
        <ele>95.31</ele>
        <time>2016-07-14T06:17:13Z</time>
      </trkpt>
      <trkpt lat="44.25627" lon="0.68099">
        <ele>96.27</ele>
        <time>2016-07-14T06:17:22Z</time>
      </trkpt>
      <trkpt lat="44.25636" lon="0.68097">
        <ele>96.27</ele>
        <time>2016-07-14T06:17:32Z</time>
      </trkpt>
      <trkpt lat="44.25647" lon="0.68092">
        <ele>96.27</ele>
        <time>2016-07-14T06:17:43Z</time>
      </trkpt>
      <trkpt lat="44.25658" lon="0.68091">
        <ele>96.75</ele>
        <time>2016-07-14T06:17:54Z</time>
      </trkpt>
      <trkpt lat="44.25668" lon="0.68092">
        <ele>97.71</ele>
        <time>2016-07-14T06:18:05Z</time>
      </trkpt>
      <trkpt lat="44.25679" lon="0.68092">
        <ele>98.19</ele>
        <time>2016-07-14T06:18:15Z</time>
      </trkpt>
      <trkpt lat="44.25688" lon="0.68095">
        <ele>98.67</ele>
        <time>2016-07-14T06:18:25Z</time>
      </trkpt>
      <trkpt lat="44.25697" lon="0.68098">
        <ele>99.63</ele>
        <time>2016-07-14T06:18:36Z</time>
      </trkpt>
      <trkpt lat="44.25709" lon="0.68098">
        <ele>100.11</ele>
        <time>2016-07-14T06:18:48Z</time>
      </trkpt>
      <trkpt lat="44.25719" lon="0.68097">
        <ele>100.11</ele>
        <time>2016-07-14T06:18:58Z</time>
      </trkpt>
      <trkpt lat="44.25729" lon="0.68092">
        <ele>100.6</ele>
        <time>2016-07-14T06:19:09Z</time>
      </trkpt>
      <trkpt lat="44.25741" lon="0.68086">
        <ele>101.56</ele>
        <time>2016-07-14T06:19:20Z</time>
      </trkpt>
      <trkpt lat="44.25753" lon="0.68079">
        <ele>102.04</ele>
        <time>2016-07-14T06:19:31Z</time>
      </trkpt>
      <trkpt lat="44.25764" lon="0.68073">
        <ele>102.52</ele>
        <time>2016-07-14T06:19:43Z</time>
      </trkpt>
      <trkpt lat="44.25774" lon="0.68067">
        <ele>103</ele>
        <time>2016-07-14T06:19:56Z</time>
      </trkpt>
      <trkpt lat="44.25783" lon="0.68061">
        <ele>103.48</ele>
        <time>2016-07-14T06:20:07Z</time>
      </trkpt>
      <trkpt lat="44.25792" lon="0.68054">
        <ele>103.48</ele>
        <time>2016-07-14T06:20:18Z</time>
      </trkpt>
      <trkpt lat="44.25801" lon="0.68048">
        <ele>104.44</ele>
        <time>2016-07-14T06:20:29Z</time>
      </trkpt>
      <trkpt lat="44.25811" lon="0.68041">
        <ele>104.44</ele>
        <time>2016-07-14T06:20:41Z</time>
      </trkpt>
      <trkpt lat="44.25825" lon="0.68031">
        <ele>105.4</ele>
        <time>2016-07-14T06:20:58Z</time>
      </trkpt>
      <trkpt lat="44.25836" lon="0.68023">
        <ele>105.88</ele>
        <time>2016-07-14T06:21:12Z</time>
      </trkpt>
      <trkpt lat="44.25847" lon="0.68018">
        <ele>106.36</ele>
        <time>2016-07-14T06:21:25Z</time>
      </trkpt>
      <trkpt lat="44.25859" lon="0.68009">
        <ele>106.84</ele>
        <time>2016-07-14T06:21:41Z</time>
      </trkpt>
      <trkpt lat="44.25869" lon="0.68">
        <ele>107.81</ele>
        <time>2016-07-14T06:21:54Z</time>
      </trkpt>
      <trkpt lat="44.2588" lon="0.68005">
        <ele>107.32</ele>
        <time>2016-07-14T06:22:13Z</time>
      </trkpt>
      <trkpt lat="44.25892" lon="0.6802">
        <ele>108.29</ele>
        <time>2016-07-14T06:22:28Z</time>
      </trkpt>
      <trkpt lat="44.259" lon="0.68028">
        <ele>108.77</ele>
        <time>2016-07-14T06:22:40Z</time>
      </trkpt>
      <trkpt lat="44.25909" lon="0.68029">
        <ele>109.73</ele>
        <time>2016-07-14T06:22:52Z</time>
      </trkpt>
      <trkpt lat="44.25932" lon="0.68015">
        <ele>111.17</ele>
        <time>2016-07-14T06:23:35Z</time>
      </trkpt>
      <trkpt lat="44.25941" lon="0.68009">
        <ele>111.65</ele>
        <time>2016-07-14T06:23:48Z</time>
      </trkpt>
      <trkpt lat="44.25952" lon="0.68002">
        <ele>113.09</ele>
        <time>2016-07-14T06:24:04Z</time>
      </trkpt>
      <trkpt lat="44.25962" lon="0.67998">
        <ele>114.05</ele>
        <time>2016-07-14T06:24:17Z</time>
      </trkpt>
      <trkpt lat="44.25973" lon="0.67994">
        <ele>115.01</ele>
        <time>2016-07-14T06:24:32Z</time>
      </trkpt>
      <trkpt lat="44.25984" lon="0.67991">
        <ele>115.98</ele>
        <time>2016-07-14T06:24:48Z</time>
      </trkpt>
      <trkpt lat="44.26003" lon="0.67977">
        <ele>118.86</ele>
        <time>2016-07-14T06:25:17Z</time>
      </trkpt>
      <trkpt lat="44.26016" lon="0.67947">
        <ele>120.3</ele>
        <time>2016-07-14T06:25:47Z</time>
      </trkpt>
      <trkpt lat="44.26022" lon="0.67928">
        <ele>121.26</ele>
        <time>2016-07-14T06:26:03Z</time>
      </trkpt>
      <trkpt lat="44.2603" lon="0.67914">
        <ele>122.22</ele>
        <time>2016-07-14T06:26:19Z</time>
      </trkpt>
      <trkpt lat="44.26096" lon="0.67884">
        <ele>133.76</ele>
        <time>2016-07-14T06:28:39Z</time>
      </trkpt>
      <trkpt lat="44.26095" lon="0.67925">
        <ele>141.93</ele>
        <time>2016-07-14T06:34:12Z</time>
      </trkpt>
      <trkpt lat="44.26088" lon="0.67946">
        <ele>143.85</ele>
        <time>2016-07-14T06:34:28Z</time>
      </trkpt>
      <trkpt lat="44.26082" lon="0.67967">
        <ele>144.34</ele>
        <time>2016-07-14T06:34:45Z</time>
      </trkpt>
      <trkpt lat="44.26078" lon="0.67994">
        <ele>144.34</ele>
        <time>2016-07-14T06:35:04Z</time>
      </trkpt>
      <trkpt lat="44.26081" lon="0.68018">
        <ele>145.3</ele>
        <time>2016-07-14T06:35:22Z</time>
      </trkpt>
      <trkpt lat="44.26089" lon="0.68034">
        <ele>145.78</ele>
        <time>2016-07-14T06:35:35Z</time>
      </trkpt>
      <trkpt lat="44.26132" lon="0.68134">
        <ele>161.64</ele>
        <time>2016-07-14T06:38:42Z</time>
      </trkpt>
      <trkpt lat="44.26098" lon="0.68144">
        <ele>162.12</ele>
        <time>2016-07-14T06:42:53Z</time>
      </trkpt>
      <trkpt lat="44.26074" lon="0.68148">
        <ele>163.08</ele>
        <time>2016-07-14T06:43:28Z</time>
      </trkpt>
      <trkpt lat="44.26044" lon="0.68157">
        <ele>163.56</ele>
        <time>2016-07-14T06:44:00Z</time>
      </trkpt>
      <trkpt lat="44.26023" lon="0.68164">
        <ele>161.64</ele>
        <time>2016-07-14T06:44:19Z</time>
      </trkpt>
      <trkpt lat="44.26007" lon="0.68168">
        <ele>160.2</ele>
        <time>2016-07-14T06:44:35Z</time>
      </trkpt>
      <trkpt lat="44.25992" lon="0.68185">
        <ele>157.79</ele>
        <time>2016-07-14T06:44:53Z</time>
      </trkpt>
      <trkpt lat="44.25981" lon="0.68218">
        <ele>155.87</ele>
        <time>2016-07-14T06:45:20Z</time>
      </trkpt>
      <trkpt lat="44.25958" lon="0.68225">
        <ele>155.39</ele>
        <time>2016-07-14T06:45:46Z</time>
      </trkpt>
      <trkpt lat="44.25943" lon="0.68236">
        <ele>156.83</ele>
        <time>2016-07-14T06:46:06Z</time>
      </trkpt>
      <trkpt lat="44.25926" lon="0.68234">
        <ele>155.39</ele>
        <time>2016-07-14T06:46:21Z</time>
      </trkpt>
      <trkpt lat="44.25907" lon="0.68231">
        <ele>156.83</ele>
        <time>2016-07-14T06:46:41Z</time>
      </trkpt>
      <trkpt lat="44.2589" lon="0.68235">
        <ele>157.79</ele>
        <time>2016-07-14T06:46:58Z</time>
      </trkpt>
      <trkpt lat="44.25879" lon="0.68241">
        <ele>158.75</ele>
        <time>2016-07-14T06:47:12Z</time>
      </trkpt>
      <trkpt lat="44.25865" lon="0.68248">
        <ele>158.75</ele>
        <time>2016-07-14T06:47:27Z</time>
      </trkpt>
      <trkpt lat="44.25851" lon="0.68255">
        <ele>156.83</ele>
        <time>2016-07-14T06:47:38Z</time>
      </trkpt>
      <trkpt lat="44.25837" lon="0.68261">
        <ele>156.35</ele>
        <time>2016-07-14T06:47:52Z</time>
      </trkpt>
      <trkpt lat="44.25822" lon="0.68266">
        <ele>155.39</ele>
        <time>2016-07-14T06:48:06Z</time>
      </trkpt>
      <trkpt lat="44.25804" lon="0.68272">
        <ele>153.95</ele>
        <time>2016-07-14T06:48:24Z</time>
      </trkpt>
      <trkpt lat="44.25785" lon="0.68277">
        <ele>153.95</ele>
        <time>2016-07-14T06:48:41Z</time>
      </trkpt>
      <trkpt lat="44.25769" lon="0.68281">
        <ele>152.03</ele>
        <time>2016-07-14T06:48:57Z</time>
      </trkpt>
      <trkpt lat="44.25748" lon="0.6828">
        <ele>150.58</ele>
        <time>2016-07-14T06:49:20Z</time>
      </trkpt>
      <trkpt lat="44.25729" lon="0.68279">
        <ele>152.51</ele>
        <time>2016-07-14T06:49:43Z</time>
      </trkpt>
      <trkpt lat="44.25716" lon="0.68285">
        <ele>153.95</ele>
        <time>2016-07-14T06:50:00Z</time>
      </trkpt>
      <trkpt lat="44.25705" lon="0.683">
        <ele>155.39</ele>
        <time>2016-07-14T06:50:19Z</time>
      </trkpt>
      <trkpt lat="44.25693" lon="0.68313">
        <ele>155.39</ele>
        <time>2016-07-14T06:50:33Z</time>
      </trkpt>
      <trkpt lat="44.25685" lon="0.68326">
        <ele>156.35</ele>
        <time>2016-07-14T06:50:45Z</time>
      </trkpt>
      <trkpt lat="44.25677" lon="0.6834">
        <ele>156.35</ele>
        <time>2016-07-14T06:50:57Z</time>
      </trkpt>
      <trkpt lat="44.25671" lon="0.68355">
        <ele>156.83</ele>
        <time>2016-07-14T06:51:10Z</time>
      </trkpt>
      <trkpt lat="44.2567" lon="0.68371">
        <ele>157.31</ele>
        <time>2016-07-14T06:51:22Z</time>
      </trkpt>
      <trkpt lat="44.2567" lon="0.68387">
        <ele>158.27</ele>
        <time>2016-07-14T06:51:35Z</time>
      </trkpt>
      <trkpt lat="44.2567" lon="0.68401">
        <ele>158.75</ele>
        <time>2016-07-14T06:51:48Z</time>
      </trkpt>
      <trkpt lat="44.25669" lon="0.68415">
        <ele>159.24</ele>
        <time>2016-07-14T06:52:00Z</time>
      </trkpt>
      <trkpt lat="44.25666" lon="0.68427">
        <ele>159.72</ele>
        <time>2016-07-14T06:52:10Z</time>
      </trkpt>
      <trkpt lat="44.25661" lon="0.68438">
        <ele>160.2</ele>
        <time>2016-07-14T06:52:20Z</time>
      </trkpt>
      <trkpt lat="44.25668" lon="0.68452">
        <ele>160.68</ele>
        <time>2016-07-14T06:52:52Z</time>
      </trkpt>
      <trkpt lat="44.25676" lon="0.68462">
        <ele>161.64</ele>
        <time>2016-07-14T06:53:03Z</time>
      </trkpt>
      <trkpt lat="44.25683" lon="0.6847">
        <ele>162.12</ele>
        <time>2016-07-14T06:53:12Z</time>
      </trkpt>
      <trkpt lat="44.25689" lon="0.6848">
        <ele>162.6</ele>
        <time>2016-07-14T06:53:21Z</time>
      </trkpt>
      <trkpt lat="44.25696" lon="0.68489">
        <ele>163.08</ele>
        <time>2016-07-14T06:53:31Z</time>
      </trkpt>
      <trkpt lat="44.25704" lon="0.68499">
        <ele>164.04</ele>
        <time>2016-07-14T06:53:41Z</time>
      </trkpt>
      <trkpt lat="44.25711" lon="0.68507">
        <ele>165</ele>
        <time>2016-07-14T06:53:58Z</time>
      </trkpt>
      <trkpt lat="44.25717" lon="0.68516">
        <ele>165.96</ele>
        <time>2016-07-14T06:54:08Z</time>
      </trkpt>
      <trkpt lat="44.25724" lon="0.68524">
        <ele>166.45</ele>
        <time>2016-07-14T06:54:18Z</time>
      </trkpt>
      <trkpt lat="44.25731" lon="0.68533">
        <ele>167.89</ele>
        <time>2016-07-14T06:54:29Z</time>
      </trkpt>
      <trkpt lat="44.25738" lon="0.68542">
        <ele>168.37</ele>
        <time>2016-07-14T06:54:40Z</time>
      </trkpt>
      <trkpt lat="44.25745" lon="0.68551">
        <ele>168.85</ele>
        <time>2016-07-14T06:54:51Z</time>
      </trkpt>
      <trkpt lat="44.25752" lon="0.6856">
        <ele>170.29</ele>
        <time>2016-07-14T06:55:01Z</time>
      </trkpt>
      <trkpt lat="44.25759" lon="0.68569">
        <ele>170.77</ele>
        <time>2016-07-14T06:55:19Z</time>
      </trkpt>
      <trkpt lat="44.25766" lon="0.68577">
        <ele>171.73</ele>
        <time>2016-07-14T06:55:30Z</time>
      </trkpt>
      <trkpt lat="44.25773" lon="0.68586">
        <ele>172.69</ele>
        <time>2016-07-14T06:55:41Z</time>
      </trkpt>
      <trkpt lat="44.25781" lon="0.68594">
        <ele>174.14</ele>
        <time>2016-07-14T06:56:02Z</time>
      </trkpt>
      <trkpt lat="44.25788" lon="0.68601">
        <ele>175.58</ele>
        <time>2016-07-14T06:56:13Z</time>
      </trkpt>
      <trkpt lat="44.25797" lon="0.68607">
        <ele>176.06</ele>
        <time>2016-07-14T06:56:35Z</time>
      </trkpt>
      <trkpt lat="44.25805" lon="0.68614">
        <ele>177.02</ele>
        <time>2016-07-14T06:56:48Z</time>
      </trkpt>
      <trkpt lat="44.25814" lon="0.68619">
        <ele>177.98</ele>
        <time>2016-07-14T06:56:59Z</time>
      </trkpt>
      <trkpt lat="44.25821" lon="0.68625">
        <ele>178.94</ele>
        <time>2016-07-14T06:57:10Z</time>
      </trkpt>
      <trkpt lat="44.25829" lon="0.68634">
        <ele>180.87</ele>
        <time>2016-07-14T06:57:22Z</time>
      </trkpt>
      <trkpt lat="44.25835" lon="0.68642">
        <ele>181.83</ele>
        <time>2016-07-14T06:57:45Z</time>
      </trkpt>
      <trkpt lat="44.25842" lon="0.68651">
        <ele>182.79</ele>
        <time>2016-07-14T06:57:57Z</time>
      </trkpt>
      <trkpt lat="44.2585" lon="0.68659">
        <ele>183.75</ele>
        <time>2016-07-14T06:58:07Z</time>
      </trkpt>
      <trkpt lat="44.25856" lon="0.68667">
        <ele>184.71</ele>
        <time>2016-07-14T06:58:17Z</time>
      </trkpt>
      <trkpt lat="44.25864" lon="0.68675">
        <ele>185.67</ele>
        <time>2016-07-14T06:58:29Z</time>
      </trkpt>
      <trkpt lat="44.25873" lon="0.6868">
        <ele>187.11</ele>
        <time>2016-07-14T06:58:52Z</time>
      </trkpt>
      <trkpt lat="44.25881" lon="0.6868">
        <ele>188.08</ele>
        <time>2016-07-14T06:59:20Z</time>
      </trkpt>
      <trkpt lat="44.25894" lon="0.68667">
        <ele>190.48</ele>
        <time>2016-07-14T06:59:53Z</time>
      </trkpt>
      <trkpt lat="44.25905" lon="0.68662">
        <ele>191.44</ele>
        <time>2016-07-14T07:00:04Z</time>
      </trkpt>
      <trkpt lat="44.25913" lon="0.68655">
        <ele>191.92</ele>
        <time>2016-07-14T07:00:14Z</time>
      </trkpt>
      <trkpt lat="44.25921" lon="0.68645">
        <ele>192.4</ele>
        <time>2016-07-14T07:00:23Z</time>
      </trkpt>
      <trkpt lat="44.2593" lon="0.68634">
        <ele>192.4</ele>
        <time>2016-07-14T07:00:33Z</time>
      </trkpt>
      <trkpt lat="44.25939" lon="0.68625">
        <ele>192.88</ele>
        <time>2016-07-14T07:00:41Z</time>
      </trkpt>
      <trkpt lat="44.25949" lon="0.68619">
        <ele>192.88</ele>
        <time>2016-07-14T07:00:50Z</time>
      </trkpt>
      <trkpt lat="44.25957" lon="0.68611">
        <ele>193.36</ele>
        <time>2016-07-14T07:00:59Z</time>
      </trkpt>
      <trkpt lat="44.25967" lon="0.68606">
        <ele>193.36</ele>
        <time>2016-07-14T07:01:06Z</time>
      </trkpt>
      <trkpt lat="44.25975" lon="0.686">
        <ele>193.36</ele>
        <time>2016-07-14T07:01:14Z</time>
      </trkpt>
      <trkpt lat="44.25984" lon="0.68595">
        <ele>192.88</ele>
        <time>2016-07-14T07:01:24Z</time>
      </trkpt>
      <trkpt lat="44.25993" lon="0.6859">
        <ele>192.88</ele>
        <time>2016-07-14T07:01:32Z</time>
      </trkpt>
      <trkpt lat="44.26002" lon="0.68586">
        <ele>192.88</ele>
        <time>2016-07-14T07:01:40Z</time>
      </trkpt>
      <trkpt lat="44.26012" lon="0.68588">
        <ele>192.88</ele>
        <time>2016-07-14T07:01:50Z</time>
      </trkpt>
      <trkpt lat="44.26023" lon="0.68584">
        <ele>192.88</ele>
        <time>2016-07-14T07:02:02Z</time>
      </trkpt>
      <trkpt lat="44.26038" lon="0.6858">
        <ele>192.88</ele>
        <time>2016-07-14T07:02:14Z</time>
      </trkpt>
      <trkpt lat="44.26049" lon="0.68574">
        <ele>192.88</ele>
        <time>2016-07-14T07:02:25Z</time>
      </trkpt>
      <trkpt lat="44.26061" lon="0.68567">
        <ele>192.88</ele>
        <time>2016-07-14T07:02:34Z</time>
      </trkpt>
      <trkpt lat="44.26071" lon="0.68561">
        <ele>192.88</ele>
        <time>2016-07-14T07:02:44Z</time>
      </trkpt>
      <trkpt lat="44.26081" lon="0.68556">
        <ele>192.88</ele>
        <time>2016-07-14T07:02:54Z</time>
      </trkpt>
      <trkpt lat="44.26093" lon="0.6855">
        <ele>192.88</ele>
        <time>2016-07-14T07:03:04Z</time>
      </trkpt>
      <trkpt lat="44.26105" lon="0.68548">
        <ele>192.88</ele>
        <time>2016-07-14T07:03:16Z</time>
      </trkpt>
      <trkpt lat="44.26119" lon="0.68546">
        <ele>192.88</ele>
        <time>2016-07-14T07:03:30Z</time>
      </trkpt>
      <trkpt lat="44.26134" lon="0.68545">
        <ele>193.36</ele>
        <time>2016-07-14T07:03:42Z</time>
      </trkpt>
      <trkpt lat="44.2615" lon="0.68539">
        <ele>192.88</ele>
        <time>2016-07-14T07:03:57Z</time>
      </trkpt>
      <trkpt lat="44.26163" lon="0.68528">
        <ele>193.84</ele>
        <time>2016-07-14T07:04:08Z</time>
      </trkpt>
      <trkpt lat="44.26175" lon="0.68519">
        <ele>193.84</ele>
        <time>2016-07-14T07:04:20Z</time>
      </trkpt>
      <trkpt lat="44.26188" lon="0.68507">
        <ele>193.84</ele>
        <time>2016-07-14T07:04:33Z</time>
      </trkpt>
      <trkpt lat="44.26198" lon="0.68497">
        <ele>194.32</ele>
        <time>2016-07-14T07:04:45Z</time>
      </trkpt>
      <trkpt lat="44.2621" lon="0.68491">
        <ele>194.8</ele>
        <time>2016-07-14T07:04:59Z</time>
      </trkpt>
      <trkpt lat="44.26223" lon="0.68485">
        <ele>195.77</ele>
        <time>2016-07-14T07:05:11Z</time>
      </trkpt>
      <trkpt lat="44.26235" lon="0.6848">
        <ele>195.77</ele>
        <time>2016-07-14T07:05:22Z</time>
      </trkpt>
      <trkpt lat="44.26243" lon="0.68468">
        <ele>195.77</ele>
        <time>2016-07-14T07:05:33Z</time>
      </trkpt>
      <trkpt lat="44.2625" lon="0.68455">
        <ele>196.25</ele>
        <time>2016-07-14T07:05:44Z</time>
      </trkpt>
      <trkpt lat="44.26257" lon="0.68442">
        <ele>196.25</ele>
        <time>2016-07-14T07:05:53Z</time>
      </trkpt>
      <trkpt lat="44.26264" lon="0.68432">
        <ele>196.73</ele>
        <time>2016-07-14T07:06:02Z</time>
      </trkpt>
      <trkpt lat="44.26272" lon="0.68422">
        <ele>196.73</ele>
        <time>2016-07-14T07:06:21Z</time>
      </trkpt>
      <trkpt lat="44.26279" lon="0.68412">
        <ele>196.73</ele>
        <time>2016-07-14T07:06:31Z</time>
      </trkpt>
      <trkpt lat="44.26287" lon="0.68403">
        <ele>196.73</ele>
        <time>2016-07-14T07:06:40Z</time>
      </trkpt>
      <trkpt lat="44.26294" lon="0.68394">
        <ele>196.73</ele>
        <time>2016-07-14T07:06:48Z</time>
      </trkpt>
      <trkpt lat="44.26302" lon="0.68387">
        <ele>196.73</ele>
        <time>2016-07-14T07:06:57Z</time>
      </trkpt>
      <trkpt lat="44.26309" lon="0.68379">
        <ele>196.73</ele>
        <time>2016-07-14T07:07:06Z</time>
      </trkpt>
      <trkpt lat="44.26316" lon="0.68371">
        <ele>196.73</ele>
        <time>2016-07-14T07:07:14Z</time>
      </trkpt>
      <trkpt lat="44.26324" lon="0.68363">
        <ele>196.73</ele>
        <time>2016-07-14T07:07:23Z</time>
      </trkpt>
      <trkpt lat="44.26333" lon="0.68352">
        <ele>197.21</ele>
        <time>2016-07-14T07:07:33Z</time>
      </trkpt>
      <trkpt lat="44.2634" lon="0.68343">
        <ele>197.21</ele>
        <time>2016-07-14T07:07:43Z</time>
      </trkpt>
      <trkpt lat="44.26346" lon="0.68333">
        <ele>197.21</ele>
        <time>2016-07-14T07:07:52Z</time>
      </trkpt>
      <trkpt lat="44.26354" lon="0.68323">
        <ele>197.69</ele>
        <time>2016-07-14T07:08:02Z</time>
      </trkpt>
      <trkpt lat="44.26361" lon="0.68319">
        <ele>198.17</ele>
        <time>2016-07-14T07:08:13Z</time>
      </trkpt>
      <trkpt lat="44.26367" lon="0.68335">
        <ele>198.17</ele>
        <time>2016-07-14T07:08:44Z</time>
      </trkpt>
      <trkpt lat="44.26372" lon="0.68349">
        <ele>196.25</ele>
        <time>2016-07-14T07:08:54Z</time>
      </trkpt>
      <trkpt lat="44.26377" lon="0.68362">
        <ele>194.8</ele>
        <time>2016-07-14T07:09:05Z</time>
      </trkpt>
      <trkpt lat="44.26382" lon="0.68374">
        <ele>194.32</ele>
        <time>2016-07-14T07:09:16Z</time>
      </trkpt>
      <trkpt lat="44.26386" lon="0.68389">
        <ele>192.4</ele>
        <time>2016-07-14T07:09:29Z</time>
      </trkpt>
      <trkpt lat="44.26387" lon="0.68411">
        <ele>190</ele>
        <time>2016-07-14T07:09:47Z</time>
      </trkpt>
      <trkpt lat="44.26397" lon="0.6843">
        <ele>186.63</ele>
        <time>2016-07-14T07:10:06Z</time>
      </trkpt>
      <trkpt lat="44.26407" lon="0.68437">
        <ele>185.19</ele>
        <time>2016-07-14T07:10:17Z</time>
      </trkpt>
      <trkpt lat="44.26415" lon="0.68446">
        <ele>183.75</ele>
        <time>2016-07-14T07:10:28Z</time>
      </trkpt>
      <trkpt lat="44.26422" lon="0.68454">
        <ele>182.31</ele>
        <time>2016-07-14T07:10:37Z</time>
      </trkpt>
      <trkpt lat="44.26428" lon="0.68465">
        <ele>181.35</ele>
        <time>2016-07-14T07:10:54Z</time>
      </trkpt>
      <trkpt lat="44.26434" lon="0.68474">
        <ele>179.9</ele>
        <time>2016-07-14T07:11:02Z</time>
      </trkpt>
      <trkpt lat="44.26437" lon="0.68486">
        <ele>178.46</ele>
        <time>2016-07-14T07:11:12Z</time>
      </trkpt>
      <trkpt lat="44.26442" lon="0.68497">
        <ele>177.02</ele>
        <time>2016-07-14T07:11:22Z</time>
      </trkpt>
      <trkpt lat="44.26446" lon="0.68509">
        <ele>175.58</ele>
        <time>2016-07-14T07:11:32Z</time>
      </trkpt>
      <trkpt lat="44.26449" lon="0.68521">
        <ele>174.14</ele>
        <time>2016-07-14T07:11:42Z</time>
      </trkpt>
      <trkpt lat="44.26453" lon="0.68533">
        <ele>173.17</ele>
        <time>2016-07-14T07:11:52Z</time>
      </trkpt>
      <trkpt lat="44.26456" lon="0.68546">
        <ele>171.73</ele>
        <time>2016-07-14T07:12:02Z</time>
      </trkpt>
      <trkpt lat="44.2646" lon="0.68558">
        <ele>170.77</ele>
        <time>2016-07-14T07:12:11Z</time>
      </trkpt>
      <trkpt lat="44.26464" lon="0.6857">
        <ele>169.81</ele>
        <time>2016-07-14T07:12:25Z</time>
      </trkpt>
      <trkpt lat="44.26468" lon="0.68583">
        <ele>168.85</ele>
        <time>2016-07-14T07:12:36Z</time>
      </trkpt>
      <trkpt lat="44.26472" lon="0.68596">
        <ele>167.89</ele>
        <time>2016-07-14T07:12:47Z</time>
      </trkpt>
      <trkpt lat="44.26476" lon="0.68609">
        <ele>165.96</ele>
        <time>2016-07-14T07:13:01Z</time>
      </trkpt>
      <trkpt lat="44.26482" lon="0.68623">
        <ele>164.52</ele>
        <time>2016-07-14T07:13:18Z</time>
      </trkpt>
      <trkpt lat="44.26494" lon="0.68617">
        <ele>164.52</ele>
        <time>2016-07-14T07:13:29Z</time>
      </trkpt>
      <trkpt lat="44.26506" lon="0.68612">
        <ele>163.56</ele>
        <time>2016-07-14T07:13:41Z</time>
      </trkpt>
      <trkpt lat="44.26516" lon="0.68606">
        <ele>162.6</ele>
        <time>2016-07-14T07:13:49Z</time>
      </trkpt>
      <trkpt lat="44.26526" lon="0.68601">
        <ele>162.6</ele>
        <time>2016-07-14T07:13:59Z</time>
      </trkpt>
      <trkpt lat="44.26535" lon="0.68594">
        <ele>162.12</ele>
        <time>2016-07-14T07:14:08Z</time>
      </trkpt>
      <trkpt lat="44.26542" lon="0.68586">
        <ele>161.16</ele>
        <time>2016-07-14T07:14:17Z</time>
      </trkpt>
      <trkpt lat="44.26549" lon="0.6858">
        <ele>160.68</ele>
        <time>2016-07-14T07:14:25Z</time>
      </trkpt>
      <trkpt lat="44.26558" lon="0.68571">
        <ele>161.16</ele>
        <time>2016-07-14T07:14:35Z</time>
      </trkpt>
      <trkpt lat="44.26564" lon="0.68562">
        <ele>158.75</ele>
        <time>2016-07-14T07:14:44Z</time>
      </trkpt>
      <trkpt lat="44.2657" lon="0.68555">
        <ele>159.24</ele>
        <time>2016-07-14T07:14:53Z</time>
      </trkpt>
      <trkpt lat="44.26577" lon="0.68547">
        <ele>159.24</ele>
        <time>2016-07-14T07:15:01Z</time>
      </trkpt>
      <trkpt lat="44.26584" lon="0.68551">
        <ele>158.27</ele>
        <time>2016-07-14T07:15:11Z</time>
      </trkpt>
      <trkpt lat="44.26592" lon="0.6856">
        <ele>158.27</ele>
        <time>2016-07-14T07:15:22Z</time>
      </trkpt>
      <trkpt lat="44.26601" lon="0.68565">
        <ele>160.2</ele>
        <time>2016-07-14T07:15:32Z</time>
      </trkpt>
      <trkpt lat="44.26612" lon="0.68569">
        <ele>158.27</ele>
        <time>2016-07-14T07:15:43Z</time>
      </trkpt>
      <trkpt lat="44.26622" lon="0.68569">
        <ele>157.31</ele>
        <time>2016-07-14T07:15:55Z</time>
      </trkpt>
      <trkpt lat="44.2663" lon="0.68576">
        <ele>159.72</ele>
        <time>2016-07-14T07:28:14Z</time>
      </trkpt>
      <trkpt lat="44.26632" lon="0.68591">
        <ele>158.27</ele>
        <time>2016-07-14T07:28:25Z</time>
      </trkpt>
      <trkpt lat="44.26633" lon="0.68604">
        <ele>157.79</ele>
        <time>2016-07-14T07:28:34Z</time>
      </trkpt>
      <trkpt lat="44.2664" lon="0.68614">
        <ele>157.79</ele>
        <time>2016-07-14T07:28:46Z</time>
      </trkpt>
      <trkpt lat="44.26642" lon="0.68645">
        <ele>159.72</ele>
        <time>2016-07-14T07:29:09Z</time>
      </trkpt>
      <trkpt lat="44.26639" lon="0.68661">
        <ele>160.68</ele>
        <time>2016-07-14T07:29:22Z</time>
      </trkpt>
      <trkpt lat="44.26635" lon="0.68675">
        <ele>161.16</ele>
        <time>2016-07-14T07:29:32Z</time>
      </trkpt>
      <trkpt lat="44.26632" lon="0.6869">
        <ele>161.16</ele>
        <time>2016-07-14T07:29:45Z</time>
      </trkpt>
      <trkpt lat="44.26628" lon="0.68705">
        <ele>161.16</ele>
        <time>2016-07-14T07:29:57Z</time>
      </trkpt>
      <trkpt lat="44.26625" lon="0.68722">
        <ele>161.64</ele>
        <time>2016-07-14T07:30:10Z</time>
      </trkpt>
      <trkpt lat="44.26625" lon="0.68753">
        <ele>162.12</ele>
        <time>2016-07-14T07:30:27Z</time>
      </trkpt>
      <trkpt lat="44.26626" lon="0.68771">
        <ele>162.6</ele>
        <time>2016-07-14T07:30:39Z</time>
      </trkpt>
      <trkpt lat="44.26626" lon="0.68791">
        <ele>160.68</ele>
        <time>2016-07-14T07:30:53Z</time>
      </trkpt>
      <trkpt lat="44.26631" lon="0.6881">
        <ele>159.24</ele>
        <time>2016-07-14T07:31:05Z</time>
      </trkpt>
      <trkpt lat="44.26638" lon="0.68831">
        <ele>158.27</ele>
        <time>2016-07-14T07:31:20Z</time>
      </trkpt>
      <trkpt lat="44.2664" lon="0.68846">
        <ele>157.31</ele>
        <time>2016-07-14T07:31:31Z</time>
      </trkpt>
      <trkpt lat="44.26641" lon="0.68861">
        <ele>156.83</ele>
        <time>2016-07-14T07:31:43Z</time>
      </trkpt>
      <trkpt lat="44.26641" lon="0.6888">
        <ele>156.35</ele>
        <time>2016-07-14T07:31:56Z</time>
      </trkpt>
      <trkpt lat="44.26634" lon="0.68898">
        <ele>155.87</ele>
        <time>2016-07-14T07:32:07Z</time>
      </trkpt>
      <trkpt lat="44.26628" lon="0.68913">
        <ele>154.91</ele>
        <time>2016-07-14T07:32:17Z</time>
      </trkpt>
      <trkpt lat="44.26622" lon="0.68925">
        <ele>153.47</ele>
        <time>2016-07-14T07:32:28Z</time>
      </trkpt>
      <trkpt lat="44.26615" lon="0.68939">
        <ele>152.99</ele>
        <time>2016-07-14T07:32:38Z</time>
      </trkpt>
      <trkpt lat="44.26609" lon="0.68954">
        <ele>152.51</ele>
        <time>2016-07-14T07:32:48Z</time>
      </trkpt>
      <trkpt lat="44.26602" lon="0.6897">
        <ele>151.54</ele>
        <time>2016-07-14T07:33:01Z</time>
      </trkpt>
      <trkpt lat="44.26595" lon="0.68986">
        <ele>151.54</ele>
        <time>2016-07-14T07:33:13Z</time>
      </trkpt>
      <trkpt lat="44.26586" lon="0.69">
        <ele>151.06</ele>
        <time>2016-07-14T07:33:28Z</time>
      </trkpt>
      <trkpt lat="44.26575" lon="0.69014">
        <ele>150.58</ele>
        <time>2016-07-14T07:33:44Z</time>
      </trkpt>
      <trkpt lat="44.26562" lon="0.69027">
        <ele>150.58</ele>
        <time>2016-07-14T07:33:56Z</time>
      </trkpt>
      <trkpt lat="44.2655" lon="0.69043">
        <ele>150.1</ele>
        <time>2016-07-14T07:34:16Z</time>
      </trkpt>
      <trkpt lat="44.2653" lon="0.69059">
        <ele>150.1</ele>
        <time>2016-07-14T07:34:34Z</time>
      </trkpt>
      <trkpt lat="44.26519" lon="0.69066">
        <ele>151.54</ele>
        <time>2016-07-14T07:34:47Z</time>
      </trkpt>
      <trkpt lat="44.26505" lon="0.69073">
        <ele>152.51</ele>
        <time>2016-07-14T07:35:01Z</time>
      </trkpt>
      <trkpt lat="44.26495" lon="0.69083">
        <ele>153.47</ele>
        <time>2016-07-14T07:35:17Z</time>
      </trkpt>
      <trkpt lat="44.26475" lon="0.691">
        <ele>154.43</ele>
        <time>2016-07-14T07:35:47Z</time>
      </trkpt>
      <trkpt lat="44.2646" lon="0.69112">
        <ele>152.03</ele>
        <time>2016-07-14T07:36:15Z</time>
      </trkpt>
      <trkpt lat="44.26432" lon="0.69136">
        <ele>146.74</ele>
        <time>2016-07-14T07:37:03Z</time>
      </trkpt>
      <trkpt lat="44.26417" lon="0.69143">
        <ele>145.78</ele>
        <time>2016-07-14T07:37:18Z</time>
      </trkpt>
      <trkpt lat="44.26402" lon="0.69149">
        <ele>145.3</ele>
        <time>2016-07-14T07:37:33Z</time>
      </trkpt>
      <trkpt lat="44.2639" lon="0.6915">
        <ele>144.82</ele>
        <time>2016-07-14T07:37:45Z</time>
      </trkpt>
      <trkpt lat="44.26378" lon="0.69154">
        <ele>144.34</ele>
        <time>2016-07-14T07:37:58Z</time>
      </trkpt>
      <trkpt lat="44.26359" lon="0.69164">
        <ele>144.34</ele>
        <time>2016-07-14T07:38:17Z</time>
      </trkpt>
      <trkpt lat="44.26345" lon="0.69171">
        <ele>143.37</ele>
        <time>2016-07-14T07:38:32Z</time>
      </trkpt>
      <trkpt lat="44.26329" lon="0.69177">
        <ele>142.41</ele>
        <time>2016-07-14T07:38:45Z</time>
      </trkpt>
      <trkpt lat="44.26314" lon="0.69183">
        <ele>141.45</ele>
        <time>2016-07-14T07:39:03Z</time>
      </trkpt>
      <trkpt lat="44.26294" lon="0.69198">
        <ele>140.97</ele>
        <time>2016-07-14T07:39:25Z</time>
      </trkpt>
      <trkpt lat="44.26278" lon="0.69218">
        <ele>140.49</ele>
        <time>2016-07-14T07:39:49Z</time>
      </trkpt>
      <trkpt lat="44.26261" lon="0.69236">
        <ele>140.49</ele>
        <time>2016-07-14T07:40:08Z</time>
      </trkpt>
      <trkpt lat="44.26239" lon="0.69253">
        <ele>136.64</ele>
        <time>2016-07-14T07:40:32Z</time>
      </trkpt>
      <trkpt lat="44.262" lon="0.6928">
        <ele>131.84</ele>
        <time>2016-07-14T07:41:15Z</time>
      </trkpt>
      <trkpt lat="44.26184" lon="0.6928">
        <ele>130.88</ele>
        <time>2016-07-14T07:41:33Z</time>
      </trkpt>
      <trkpt lat="44.26166" lon="0.69303">
        <ele>130.88</ele>
        <time>2016-07-14T07:41:52Z</time>
      </trkpt>
      <trkpt lat="44.26153" lon="0.69323">
        <ele>130.88</ele>
        <time>2016-07-14T07:42:14Z</time>
      </trkpt>
      <trkpt lat="44.26141" lon="0.69343">
        <ele>133.76</ele>
        <time>2016-07-14T07:42:33Z</time>
      </trkpt>
      <trkpt lat="44.26121" lon="0.69403">
        <ele>135.68</ele>
        <time>2016-07-14T07:43:24Z</time>
      </trkpt>
      <trkpt lat="44.26121" lon="0.69483">
        <ele>133.76</ele>
        <time>2016-07-14T07:44:19Z</time>
      </trkpt>
      <trkpt lat="44.26126" lon="0.69541">
        <ele>131.36</ele>
        <time>2016-07-14T07:45:02Z</time>
      </trkpt>
      <trkpt lat="44.26123" lon="0.69571">
        <ele>130.88</ele>
        <time>2016-07-14T07:45:19Z</time>
      </trkpt>
      <trkpt lat="44.26115" lon="0.69603">
        <ele>130.4</ele>
        <time>2016-07-14T07:45:43Z</time>
      </trkpt>
      <trkpt lat="44.26108" lon="0.69618">
        <ele>129.92</ele>
        <time>2016-07-14T07:45:55Z</time>
      </trkpt>
      <trkpt lat="44.26103" lon="0.69635">
        <ele>128.47</ele>
        <time>2016-07-14T07:46:08Z</time>
      </trkpt>
      <trkpt lat="44.26096" lon="0.69649">
        <ele>127.03</ele>
        <time>2016-07-14T07:46:22Z</time>
      </trkpt>
      <trkpt lat="44.26084" lon="0.69667">
        <ele>125.11</ele>
        <time>2016-07-14T07:46:38Z</time>
      </trkpt>
      <trkpt lat="44.26074" lon="0.69687">
        <ele>123.19</ele>
        <time>2016-07-14T07:46:57Z</time>
      </trkpt>
      <trkpt lat="44.26056" lon="0.69713">
        <ele>119.34</ele>
        <time>2016-07-14T07:47:28Z</time>
      </trkpt>
      <trkpt lat="44.26048" lon="0.6973">
        <ele>117.42</ele>
        <time>2016-07-14T07:52:44Z</time>
      </trkpt>
      <trkpt lat="44.2604" lon="0.69746">
        <ele>115.01</ele>
        <time>2016-07-14T07:53:01Z</time>
      </trkpt>
      <trkpt lat="44.26032" lon="0.69761">
        <ele>112.61</ele>
        <time>2016-07-14T07:53:17Z</time>
      </trkpt>
      <trkpt lat="44.26026" lon="0.69775">
        <ele>110.69</ele>
        <time>2016-07-14T07:53:30Z</time>
      </trkpt>
      <trkpt lat="44.26019" lon="0.69784">
        <ele>109.73</ele>
        <time>2016-07-14T07:53:43Z</time>
      </trkpt>
      <trkpt lat="44.26014" lon="0.69798">
        <ele>107.32</ele>
        <time>2016-07-14T07:53:56Z</time>
      </trkpt>
      <trkpt lat="44.26005" lon="0.69807">
        <ele>105.4</ele>
        <time>2016-07-14T07:54:08Z</time>
      </trkpt>
      <trkpt lat="44.25997" lon="0.69817">
        <ele>104.44</ele>
        <time>2016-07-14T07:54:19Z</time>
      </trkpt>
      <trkpt lat="44.25991" lon="0.69828">
        <ele>102.52</ele>
        <time>2016-07-14T07:54:30Z</time>
      </trkpt>
      <trkpt lat="44.25983" lon="0.69839">
        <ele>101.08</ele>
        <time>2016-07-14T07:54:42Z</time>
      </trkpt>
      <trkpt lat="44.25979" lon="0.69851">
        <ele>98.67</ele>
        <time>2016-07-14T07:54:53Z</time>
      </trkpt>
      <trkpt lat="44.25978" lon="0.69866">
        <ele>97.71</ele>
        <time>2016-07-14T07:55:02Z</time>
      </trkpt>
      <trkpt lat="44.25983" lon="0.69879">
        <ele>95.79</ele>
        <time>2016-07-14T07:55:14Z</time>
      </trkpt>
      <trkpt lat="44.25992" lon="0.69895">
        <ele>95.31</ele>
        <time>2016-07-14T07:55:30Z</time>
      </trkpt>
      <trkpt lat="44.26" lon="0.69905">
        <ele>94.35</ele>
        <time>2016-07-14T07:55:40Z</time>
      </trkpt>
      <trkpt lat="44.26008" lon="0.69913">
        <ele>93.39</ele>
        <time>2016-07-14T07:55:49Z</time>
      </trkpt>
      <trkpt lat="44.26015" lon="0.69926">
        <ele>92.42</ele>
        <time>2016-07-14T07:55:58Z</time>
      </trkpt>
      <trkpt lat="44.26023" lon="0.69938">
        <ele>91.94</ele>
        <time>2016-07-14T07:56:08Z</time>
      </trkpt>
      <trkpt lat="44.26032" lon="0.6995">
        <ele>91.46</ele>
        <time>2016-07-14T07:56:25Z</time>
      </trkpt>
      <trkpt lat="44.26041" lon="0.69959">
        <ele>90.98</ele>
        <time>2016-07-14T07:56:37Z</time>
      </trkpt>
      <trkpt lat="44.26049" lon="0.69968">
        <ele>90.98</ele>
        <time>2016-07-14T07:56:46Z</time>
      </trkpt>
      <trkpt lat="44.26058" lon="0.69979">
        <ele>90.98</ele>
        <time>2016-07-14T07:56:58Z</time>
      </trkpt>
      <trkpt lat="44.26066" lon="0.69988">
        <ele>90.02</ele>
        <time>2016-07-14T07:57:08Z</time>
      </trkpt>
      <trkpt lat="44.26071" lon="0.7">
        <ele>89.54</ele>
        <time>2016-07-14T07:57:19Z</time>
      </trkpt>
      <trkpt lat="44.26066" lon="0.70014">
        <ele>89.06</ele>
        <time>2016-07-14T07:57:35Z</time>
      </trkpt>
      <trkpt lat="44.26063" lon="0.70028">
        <ele>87.62</ele>
        <time>2016-07-14T07:57:48Z</time>
      </trkpt>
      <trkpt lat="44.26053" lon="0.70033">
        <ele>87.14</ele>
        <time>2016-07-14T07:57:59Z</time>
      </trkpt>
      <trkpt lat="44.26043" lon="0.70027">
        <ele>86.66</ele>
        <time>2016-07-14T07:58:09Z</time>
      </trkpt>
      <trkpt lat="44.26034" lon="0.70021">
        <ele>86.66</ele>
        <time>2016-07-14T07:58:18Z</time>
      </trkpt>
      <trkpt lat="44.26024" lon="0.70015">
        <ele>86.66</ele>
        <time>2016-07-14T07:58:28Z</time>
      </trkpt>
      <trkpt lat="44.26014" lon="0.70008">
        <ele>86.66</ele>
        <time>2016-07-14T07:58:36Z</time>
      </trkpt>
      <trkpt lat="44.26004" lon="0.7">
        <ele>86.18</ele>
        <time>2016-07-14T07:58:48Z</time>
      </trkpt>
      <trkpt lat="44.25995" lon="0.69992">
        <ele>86.18</ele>
        <time>2016-07-14T07:58:57Z</time>
      </trkpt>
      <trkpt lat="44.25985" lon="0.69982">
        <ele>85.21</ele>
        <time>2016-07-14T07:59:09Z</time>
      </trkpt>
      <trkpt lat="44.25977" lon="0.69973">
        <ele>84.73</ele>
        <time>2016-07-14T07:59:18Z</time>
      </trkpt>
      <trkpt lat="44.2597" lon="0.69962">
        <ele>84.25</ele>
        <time>2016-07-14T07:59:29Z</time>
      </trkpt>
      <trkpt lat="44.25967" lon="0.69957">
        <ele>84.25</ele>
        <time>2016-07-14T07:59:47Z</time>
      </trkpt>
      <trkpt lat="44.25959" lon="0.69946">
        <ele>84.25</ele>
        <time>2016-07-14T07:59:56Z</time>
      </trkpt>
      <trkpt lat="44.25951" lon="0.69935">
        <ele>84.25</ele>
        <time>2016-07-14T08:00:06Z</time>
      </trkpt>
      <trkpt lat="44.25943" lon="0.69924">
        <ele>84.25</ele>
        <time>2016-07-14T08:00:15Z</time>
      </trkpt>
      <trkpt lat="44.25936" lon="0.69913">
        <ele>83.77</ele>
        <time>2016-07-14T08:00:25Z</time>
      </trkpt>
      <trkpt lat="44.25929" lon="0.69902">
        <ele>83.77</ele>
        <time>2016-07-14T08:00:36Z</time>
      </trkpt>
      <trkpt lat="44.25923" lon="0.69892">
        <ele>83.77</ele>
        <time>2016-07-14T08:00:45Z</time>
      </trkpt>
      <trkpt lat="44.25916" lon="0.69882">
        <ele>85.21</ele>
        <time>2016-07-14T08:00:55Z</time>
      </trkpt>
      <trkpt lat="44.25909" lon="0.69872">
        <ele>85.69</ele>
        <time>2016-07-14T08:01:05Z</time>
      </trkpt>
      <trkpt lat="44.25901" lon="0.69863">
        <ele>85.69</ele>
        <time>2016-07-14T08:01:14Z</time>
      </trkpt>
      <trkpt lat="44.25893" lon="0.69855">
        <ele>85.69</ele>
        <time>2016-07-14T08:01:23Z</time>
      </trkpt>
      <trkpt lat="44.25885" lon="0.69848">
        <ele>85.69</ele>
        <time>2016-07-14T08:01:32Z</time>
      </trkpt>
      <trkpt lat="44.25876" lon="0.6984">
        <ele>85.69</ele>
        <time>2016-07-14T08:01:41Z</time>
      </trkpt>
      <trkpt lat="44.25867" lon="0.69833">
        <ele>85.69</ele>
        <time>2016-07-14T08:01:50Z</time>
      </trkpt>
      <trkpt lat="44.2586" lon="0.69827">
        <ele>84.73</ele>
        <time>2016-07-14T08:01:59Z</time>
      </trkpt>
      <trkpt lat="44.25853" lon="0.69819">
        <ele>84.73</ele>
        <time>2016-07-14T08:02:07Z</time>
      </trkpt>
      <trkpt lat="44.25843" lon="0.69809">
        <ele>84.25</ele>
        <time>2016-07-14T08:02:17Z</time>
      </trkpt>
      <trkpt lat="44.25834" lon="0.698">
        <ele>83.77</ele>
        <time>2016-07-14T08:02:28Z</time>
      </trkpt>
      <trkpt lat="44.25826" lon="0.69792">
        <ele>83.29</ele>
        <time>2016-07-14T08:02:36Z</time>
      </trkpt>
      <trkpt lat="44.25818" lon="0.69785">
        <ele>82.81</ele>
        <time>2016-07-14T08:02:44Z</time>
      </trkpt>
      <trkpt lat="44.2581" lon="0.69777">
        <ele>82.33</ele>
        <time>2016-07-14T08:02:53Z</time>
      </trkpt>
      <trkpt lat="44.25801" lon="0.69768">
        <ele>81.85</ele>
        <time>2016-07-14T08:03:01Z</time>
      </trkpt>
      <trkpt lat="44.25792" lon="0.69759">
        <ele>81.37</ele>
        <time>2016-07-14T08:03:10Z</time>
      </trkpt>
      <trkpt lat="44.25783" lon="0.6975">
        <ele>81.37</ele>
        <time>2016-07-14T08:03:20Z</time>
      </trkpt>
      <trkpt lat="44.25775" lon="0.69741">
        <ele>80.89</ele>
        <time>2016-07-14T08:03:29Z</time>
      </trkpt>
      <trkpt lat="44.25766" lon="0.69731">
        <ele>80.89</ele>
        <time>2016-07-14T08:03:39Z</time>
      </trkpt>
      <trkpt lat="44.25757" lon="0.69724">
        <ele>80.89</ele>
        <time>2016-07-14T08:03:48Z</time>
      </trkpt>
      <trkpt lat="44.25748" lon="0.69715">
        <ele>80.89</ele>
        <time>2016-07-14T08:03:58Z</time>
      </trkpt>
      <trkpt lat="44.2574" lon="0.69708">
        <ele>80.89</ele>
        <time>2016-07-14T08:04:07Z</time>
      </trkpt>
      <trkpt lat="44.25731" lon="0.69699">
        <ele>80.89</ele>
        <time>2016-07-14T08:04:17Z</time>
      </trkpt>
      <trkpt lat="44.25723" lon="0.6969">
        <ele>80.89</ele>
        <time>2016-07-14T08:04:27Z</time>
      </trkpt>
      <trkpt lat="44.25714" lon="0.69682">
        <ele>80.89</ele>
        <time>2016-07-14T08:04:37Z</time>
      </trkpt>
      <trkpt lat="44.25705" lon="0.69674">
        <ele>80.89</ele>
        <time>2016-07-14T08:04:47Z</time>
      </trkpt>
      <trkpt lat="44.25698" lon="0.69666">
        <ele>80.89</ele>
        <time>2016-07-14T08:04:56Z</time>
      </trkpt>
      <trkpt lat="44.2569" lon="0.69657">
        <ele>80.41</ele>
        <time>2016-07-14T08:05:05Z</time>
      </trkpt>
      <trkpt lat="44.25682" lon="0.69649">
        <ele>80.41</ele>
        <time>2016-07-14T08:05:15Z</time>
      </trkpt>
      <trkpt lat="44.25672" lon="0.69639">
        <ele>80.41</ele>
        <time>2016-07-14T08:05:25Z</time>
      </trkpt>
      <trkpt lat="44.25664" lon="0.69631">
        <ele>80.41</ele>
        <time>2016-07-14T08:05:34Z</time>
      </trkpt>
      <trkpt lat="44.25656" lon="0.6962">
        <ele>80.41</ele>
        <time>2016-07-14T08:05:44Z</time>
      </trkpt>
      <trkpt lat="44.25647" lon="0.69611">
        <ele>80.41</ele>
        <time>2016-07-14T08:05:54Z</time>
      </trkpt>
      <trkpt lat="44.25639" lon="0.69601">
        <ele>80.41</ele>
        <time>2016-07-14T08:06:04Z</time>
      </trkpt>
      <trkpt lat="44.25632" lon="0.69591">
        <ele>80.41</ele>
        <time>2016-07-14T08:06:14Z</time>
      </trkpt>
      <trkpt lat="44.25624" lon="0.6958">
        <ele>81.85</ele>
        <time>2016-07-14T08:06:25Z</time>
      </trkpt>
      <trkpt lat="44.25616" lon="0.69571">
        <ele>81.85</ele>
        <time>2016-07-14T08:06:35Z</time>
      </trkpt>
      <trkpt lat="44.25607" lon="0.6956">
        <ele>81.85</ele>
        <time>2016-07-14T08:06:46Z</time>
      </trkpt>
      <trkpt lat="44.25599" lon="0.69551">
        <ele>81.85</ele>
        <time>2016-07-14T08:06:56Z</time>
      </trkpt>
      <trkpt lat="44.2559" lon="0.69541">
        <ele>81.37</ele>
        <time>2016-07-14T08:07:06Z</time>
      </trkpt>
      <trkpt lat="44.25581" lon="0.6953">
        <ele>81.37</ele>
        <time>2016-07-14T08:07:17Z</time>
      </trkpt>
      <trkpt lat="44.25572" lon="0.69519">
        <ele>81.37</ele>
        <time>2016-07-14T08:07:28Z</time>
      </trkpt>
      <trkpt lat="44.25563" lon="0.69509">
        <ele>81.37</ele>
        <time>2016-07-14T08:07:38Z</time>
      </trkpt>
      <trkpt lat="44.25555" lon="0.695">
        <ele>81.37</ele>
        <time>2016-07-14T08:07:47Z</time>
      </trkpt>
      <trkpt lat="44.25546" lon="0.6949">
        <ele>81.37</ele>
        <time>2016-07-14T08:07:58Z</time>
      </trkpt>
      <trkpt lat="44.25537" lon="0.69479">
        <ele>80.41</ele>
        <time>2016-07-14T08:08:11Z</time>
      </trkpt>
      <trkpt lat="44.25528" lon="0.69465">
        <ele>79.93</ele>
        <time>2016-07-14T08:08:22Z</time>
      </trkpt>
      <trkpt lat="44.25519" lon="0.69455">
        <ele>79.93</ele>
        <time>2016-07-14T08:08:33Z</time>
      </trkpt>
      <trkpt lat="44.25511" lon="0.69444">
        <ele>79.93</ele>
        <time>2016-07-14T08:08:45Z</time>
      </trkpt>
      <trkpt lat="44.25503" lon="0.69433">
        <ele>79.93</ele>
        <time>2016-07-14T08:08:56Z</time>
      </trkpt>
      <trkpt lat="44.25495" lon="0.69423">
        <ele>80.89</ele>
        <time>2016-07-14T08:09:06Z</time>
      </trkpt>
      <trkpt lat="44.25487" lon="0.69414">
        <ele>81.37</ele>
        <time>2016-07-14T08:09:16Z</time>
      </trkpt>
      <trkpt lat="44.25479" lon="0.69403">
        <ele>81.85</ele>
        <time>2016-07-14T08:09:27Z</time>
      </trkpt>
      <trkpt lat="44.25472" lon="0.69392">
        <ele>81.85</ele>
        <time>2016-07-14T08:09:37Z</time>
      </trkpt>
      <trkpt lat="44.25465" lon="0.69381">
        <ele>81.85</ele>
        <time>2016-07-14T08:09:46Z</time>
      </trkpt>
      <trkpt lat="44.25459" lon="0.69371">
        <ele>81.85</ele>
        <time>2016-07-14T08:09:56Z</time>
      </trkpt>
      <trkpt lat="44.25452" lon="0.69361">
        <ele>81.85</ele>
        <time>2016-07-14T08:10:07Z</time>
      </trkpt>
      <trkpt lat="44.25445" lon="0.6935">
        <ele>81.85</ele>
        <time>2016-07-14T08:10:18Z</time>
      </trkpt>
      <trkpt lat="44.25437" lon="0.6934">
        <ele>81.85</ele>
        <time>2016-07-14T08:10:28Z</time>
      </trkpt>
      <trkpt lat="44.25431" lon="0.69328">
        <ele>82.33</ele>
        <time>2016-07-14T08:10:39Z</time>
      </trkpt>
      <trkpt lat="44.25425" lon="0.69318">
        <ele>83.29</ele>
        <time>2016-07-14T08:10:51Z</time>
      </trkpt>
      <trkpt lat="44.25417" lon="0.69309">
        <ele>83.77</ele>
        <time>2016-07-14T08:11:02Z</time>
      </trkpt>
      <trkpt lat="44.25408" lon="0.69301">
        <ele>84.73</ele>
        <time>2016-07-14T08:11:13Z</time>
      </trkpt>
      <trkpt lat="44.25399" lon="0.69297">
        <ele>85.21</ele>
        <time>2016-07-14T08:11:23Z</time>
      </trkpt>
      <trkpt lat="44.25389" lon="0.69294">
        <ele>85.21</ele>
        <time>2016-07-14T08:11:34Z</time>
      </trkpt>
      <trkpt lat="44.2538" lon="0.69288">
        <ele>85.69</ele>
        <time>2016-07-14T08:11:45Z</time>
      </trkpt>
      <trkpt lat="44.25371" lon="0.69284">
        <ele>86.66</ele>
        <time>2016-07-14T08:11:54Z</time>
      </trkpt>
      <trkpt lat="44.25364" lon="0.69276">
        <ele>86.66</ele>
        <time>2016-07-14T08:12:04Z</time>
      </trkpt>
      <trkpt lat="44.25355" lon="0.69268">
        <ele>87.14</ele>
        <time>2016-07-14T08:12:18Z</time>
      </trkpt>
      <trkpt lat="44.25353" lon="0.69255">
        <ele>88.1</ele>
        <time>2016-07-14T08:12:30Z</time>
      </trkpt>
      <trkpt lat="44.25346" lon="0.69246">
        <ele>87.14</ele>
        <time>2016-07-14T08:12:44Z</time>
      </trkpt>
      <trkpt lat="44.25341" lon="0.69234">
        <ele>85.69</ele>
        <time>2016-07-14T08:12:54Z</time>
      </trkpt>
      <trkpt lat="44.25333" lon="0.69221">
        <ele>84.73</ele>
        <time>2016-07-14T08:13:06Z</time>
      </trkpt>
      <trkpt lat="44.25323" lon="0.69201">
        <ele>83.77</ele>
        <time>2016-07-14T08:13:22Z</time>
      </trkpt>
      <trkpt lat="44.25312" lon="0.69181">
        <ele>83.29</ele>
        <time>2016-07-14T08:13:38Z</time>
      </trkpt>
      <trkpt lat="44.25302" lon="0.69167">
        <ele>82.81</ele>
        <time>2016-07-14T08:13:51Z</time>
      </trkpt>
      <trkpt lat="44.25292" lon="0.69152">
        <ele>82.33</ele>
        <time>2016-07-14T08:14:04Z</time>
      </trkpt>
      <trkpt lat="44.25284" lon="0.69139">
        <ele>81.85</ele>
        <time>2016-07-14T08:14:15Z</time>
      </trkpt>
      <trkpt lat="44.25275" lon="0.69128">
        <ele>81.37</ele>
        <time>2016-07-14T08:14:25Z</time>
      </trkpt>
      <trkpt lat="44.2527" lon="0.69117">
        <ele>81.37</ele>
        <time>2016-07-14T08:14:33Z</time>
      </trkpt>
      <trkpt lat="44.25262" lon="0.69107">
        <ele>80.41</ele>
        <time>2016-07-14T08:14:42Z</time>
      </trkpt>
      <trkpt lat="44.25255" lon="0.69097">
        <ele>80.41</ele>
        <time>2016-07-14T08:14:51Z</time>
      </trkpt>
      <trkpt lat="44.25248" lon="0.69086">
        <ele>79.93</ele>
        <time>2016-07-14T08:15:00Z</time>
      </trkpt>
      <trkpt lat="44.25241" lon="0.69076">
        <ele>79.93</ele>
        <time>2016-07-14T08:15:10Z</time>
      </trkpt>
      <trkpt lat="44.25234" lon="0.69066">
        <ele>79.93</ele>
        <time>2016-07-14T08:15:20Z</time>
      </trkpt>
      <trkpt lat="44.25228" lon="0.69055">
        <ele>79.93</ele>
        <time>2016-07-14T08:15:29Z</time>
      </trkpt>
      <trkpt lat="44.25222" lon="0.69044">
        <ele>79.93</ele>
        <time>2016-07-14T08:15:38Z</time>
      </trkpt>
      <trkpt lat="44.25216" lon="0.69033">
        <ele>79.93</ele>
        <time>2016-07-14T08:15:47Z</time>
      </trkpt>
      <trkpt lat="44.25209" lon="0.69022">
        <ele>79.45</ele>
        <time>2016-07-14T08:15:57Z</time>
      </trkpt>
      <trkpt lat="44.25202" lon="0.6901">
        <ele>78.97</ele>
        <time>2016-07-14T08:16:07Z</time>
      </trkpt>
      <trkpt lat="44.25195" lon="0.68999">
        <ele>78.97</ele>
        <time>2016-07-14T08:16:17Z</time>
      </trkpt>
      <trkpt lat="44.25189" lon="0.68988">
        <ele>78.97</ele>
        <time>2016-07-14T08:16:27Z</time>
      </trkpt>
      <trkpt lat="44.25182" lon="0.6898">
        <ele>78.97</ele>
        <time>2016-07-14T08:16:36Z</time>
      </trkpt>
      <trkpt lat="44.25175" lon="0.68967">
        <ele>78.97</ele>
        <time>2016-07-14T08:16:47Z</time>
      </trkpt>
      <trkpt lat="44.25169" lon="0.68956">
        <ele>78.97</ele>
        <time>2016-07-14T08:16:56Z</time>
      </trkpt>
      <trkpt lat="44.25163" lon="0.68944">
        <ele>78.97</ele>
        <time>2016-07-14T08:17:06Z</time>
      </trkpt>
      <trkpt lat="44.25158" lon="0.68933">
        <ele>78.97</ele>
        <time>2016-07-14T08:17:15Z</time>
      </trkpt>
      <trkpt lat="44.2515" lon="0.68923">
        <ele>78.97</ele>
        <time>2016-07-14T08:17:26Z</time>
      </trkpt>
      <trkpt lat="44.25142" lon="0.68911">
        <ele>78.97</ele>
        <time>2016-07-14T08:17:37Z</time>
      </trkpt>
      <trkpt lat="44.25135" lon="0.68898">
        <ele>78.97</ele>
        <time>2016-07-14T08:17:47Z</time>
      </trkpt>
      <trkpt lat="44.25128" lon="0.68887">
        <ele>78.97</ele>
        <time>2016-07-14T08:17:57Z</time>
      </trkpt>
      <trkpt lat="44.25121" lon="0.68877">
        <ele>78.48</ele>
        <time>2016-07-14T08:18:07Z</time>
      </trkpt>
      <trkpt lat="44.25113" lon="0.68862">
        <ele>78.48</ele>
        <time>2016-07-14T08:18:18Z</time>
      </trkpt>
      <trkpt lat="44.25105" lon="0.68851">
        <ele>78</ele>
        <time>2016-07-14T08:18:29Z</time>
      </trkpt>
      <trkpt lat="44.25099" lon="0.68839">
        <ele>77.52</ele>
        <time>2016-07-14T08:18:39Z</time>
      </trkpt>
      <trkpt lat="44.25092" lon="0.68827">
        <ele>76.56</ele>
        <time>2016-07-14T08:18:50Z</time>
      </trkpt>
      <trkpt lat="44.25085" lon="0.68813">
        <ele>76.56</ele>
        <time>2016-07-14T08:19:02Z</time>
      </trkpt>
      <trkpt lat="44.25077" lon="0.68801">
        <ele>76.08</ele>
        <time>2016-07-14T08:19:14Z</time>
      </trkpt>
      <trkpt lat="44.25063" lon="0.6878">
        <ele>74.64</ele>
        <time>2016-07-14T08:19:33Z</time>
      </trkpt>
      <trkpt lat="44.25056" lon="0.68769">
        <ele>74.64</ele>
        <time>2016-07-14T08:19:46Z</time>
      </trkpt>
      <trkpt lat="44.2505" lon="0.68755">
        <ele>74.64</ele>
        <time>2016-07-14T08:20:00Z</time>
      </trkpt>
      <trkpt lat="44.25043" lon="0.68735">
        <ele>74.64</ele>
        <time>2016-07-14T08:20:17Z</time>
      </trkpt>
      <trkpt lat="44.25037" lon="0.68717">
        <ele>76.08</ele>
        <time>2016-07-14T08:20:33Z</time>
      </trkpt>
      <trkpt lat="44.25029" lon="0.68706">
        <ele>75.12</ele>
        <time>2016-07-14T08:20:44Z</time>
      </trkpt>
      <trkpt lat="44.25018" lon="0.6871">
        <ele>75.12</ele>
        <time>2016-07-14T08:20:56Z</time>
      </trkpt>
      <trkpt lat="44.25008" lon="0.68714">
        <ele>75.6</ele>
        <time>2016-07-14T08:21:05Z</time>
      </trkpt>
      <trkpt lat="44.25" lon="0.6872">
        <ele>75.6</ele>
        <time>2016-07-14T08:21:15Z</time>
      </trkpt>
      <trkpt lat="44.24993" lon="0.68729">
        <ele>75.12</ele>
        <time>2016-07-14T08:21:24Z</time>
      </trkpt>
      <trkpt lat="44.24986" lon="0.68736">
        <ele>75.12</ele>
        <time>2016-07-14T08:21:33Z</time>
      </trkpt>
      <trkpt lat="44.24977" lon="0.68742">
        <ele>75.12</ele>
        <time>2016-07-14T08:21:43Z</time>
      </trkpt>
      <trkpt lat="44.24969" lon="0.6875">
        <ele>74.16</ele>
        <time>2016-07-14T08:21:53Z</time>
      </trkpt>
      <trkpt lat="44.2496" lon="0.68757">
        <ele>73.68</ele>
        <time>2016-07-14T08:22:03Z</time>
      </trkpt>
      <trkpt lat="44.24951" lon="0.68763">
        <ele>73.68</ele>
        <time>2016-07-14T08:22:13Z</time>
      </trkpt>
      <trkpt lat="44.24942" lon="0.6877">
        <ele>73.68</ele>
        <time>2016-07-14T08:22:23Z</time>
      </trkpt>
      <trkpt lat="44.24934" lon="0.68777">
        <ele>73.68</ele>
        <time>2016-07-14T08:22:33Z</time>
      </trkpt>
      <trkpt lat="44.24925" lon="0.68782">
        <ele>73.2</ele>
        <time>2016-07-14T08:22:43Z</time>
      </trkpt>
      <trkpt lat="44.24916" lon="0.68787">
        <ele>73.2</ele>
        <time>2016-07-14T08:22:54Z</time>
      </trkpt>
      <trkpt lat="44.24907" lon="0.68794">
        <ele>73.2</ele>
        <time>2016-07-14T08:23:34Z</time>
      </trkpt>
      <trkpt lat="44.24898" lon="0.688">
        <ele>72.72</ele>
        <time>2016-07-14T08:23:50Z</time>
      </trkpt>
      <trkpt lat="44.2489" lon="0.68794">
        <ele>74.64</ele>
        <time>2016-07-14T08:24:05Z</time>
      </trkpt>
      <trkpt lat="44.24886" lon="0.68782">
        <ele>74.64</ele>
        <time>2016-07-14T08:24:15Z</time>
      </trkpt>
      <trkpt lat="44.24883" lon="0.68771">
        <ele>74.16</ele>
        <time>2016-07-14T08:24:23Z</time>
      </trkpt>
      <trkpt lat="44.24882" lon="0.68758">
        <ele>74.16</ele>
        <time>2016-07-14T08:24:33Z</time>
      </trkpt>
      <trkpt lat="44.24881" lon="0.68744">
        <ele>73.2</ele>
        <time>2016-07-14T08:24:43Z</time>
      </trkpt>
      <trkpt lat="44.2488" lon="0.68729">
        <ele>73.2</ele>
        <time>2016-07-14T08:24:55Z</time>
      </trkpt>
      <trkpt lat="44.24878" lon="0.68715">
        <ele>73.2</ele>
        <time>2016-07-14T08:25:06Z</time>
      </trkpt>
      <trkpt lat="44.24872" lon="0.68701">
        <ele>73.2</ele>
        <time>2016-07-14T08:25:16Z</time>
      </trkpt>
      <trkpt lat="44.24866" lon="0.68688">
        <ele>72.72</ele>
        <time>2016-07-14T08:25:26Z</time>
      </trkpt>
      <trkpt lat="44.24861" lon="0.68677">
        <ele>72.72</ele>
        <time>2016-07-14T08:25:35Z</time>
      </trkpt>
      <trkpt lat="44.24858" lon="0.68665">
        <ele>72.72</ele>
        <time>2016-07-14T08:25:46Z</time>
      </trkpt>
      <trkpt lat="44.24856" lon="0.68651">
        <ele>72.72</ele>
        <time>2016-07-14T08:25:57Z</time>
      </trkpt>
      <trkpt lat="44.24852" lon="0.68638">
        <ele>72.72</ele>
        <time>2016-07-14T08:26:07Z</time>
      </trkpt>
      <trkpt lat="44.2485" lon="0.68622">
        <ele>72.72</ele>
        <time>2016-07-14T08:26:18Z</time>
      </trkpt>
      <trkpt lat="44.24847" lon="0.68606">
        <ele>72.24</ele>
        <time>2016-07-14T08:26:29Z</time>
      </trkpt>
      <trkpt lat="44.24843" lon="0.68594">
        <ele>72.24</ele>
        <time>2016-07-14T08:26:39Z</time>
      </trkpt>
      <trkpt lat="44.24843" lon="0.6858">
        <ele>72.24</ele>
        <time>2016-07-14T08:26:49Z</time>
      </trkpt>
      <trkpt lat="44.24842" lon="0.68566">
        <ele>72.24</ele>
        <time>2016-07-14T08:26:59Z</time>
      </trkpt>
      <trkpt lat="44.2484" lon="0.68552">
        <ele>72.24</ele>
        <time>2016-07-14T08:27:08Z</time>
      </trkpt>
      <trkpt lat="44.24837" lon="0.68539">
        <ele>72.24</ele>
        <time>2016-07-14T08:27:18Z</time>
      </trkpt>
      <trkpt lat="44.24835" lon="0.68525">
        <ele>72.24</ele>
        <time>2016-07-14T08:27:28Z</time>
      </trkpt>
      <trkpt lat="44.2483" lon="0.68512">
        <ele>72.24</ele>
        <time>2016-07-14T08:27:38Z</time>
      </trkpt>
      <trkpt lat="44.24824" lon="0.685">
        <ele>72.24</ele>
        <time>2016-07-14T08:27:49Z</time>
      </trkpt>
      <trkpt lat="44.24818" lon="0.6849">
        <ele>72.24</ele>
        <time>2016-07-14T08:27:59Z</time>
      </trkpt>
      <trkpt lat="44.2481" lon="0.68479">
        <ele>72.24</ele>
        <time>2016-07-14T08:28:09Z</time>
      </trkpt>
      <trkpt lat="44.24801" lon="0.68469">
        <ele>72.24</ele>
        <time>2016-07-14T08:28:20Z</time>
      </trkpt>
      <trkpt lat="44.24794" lon="0.68459">
        <ele>72.24</ele>
        <time>2016-07-14T08:28:29Z</time>
      </trkpt>
      <trkpt lat="44.24785" lon="0.6845">
        <ele>72.24</ele>
        <time>2016-07-14T08:28:39Z</time>
      </trkpt>
      <trkpt lat="44.24776" lon="0.68442">
        <ele>72.24</ele>
        <time>2016-07-14T08:28:50Z</time>
      </trkpt>
      <trkpt lat="44.24766" lon="0.68434">
        <ele>72.24</ele>
        <time>2016-07-14T08:29:02Z</time>
      </trkpt>
      <trkpt lat="44.24755" lon="0.68427">
        <ele>72.24</ele>
        <time>2016-07-14T08:29:12Z</time>
      </trkpt>
      <trkpt lat="44.24745" lon="0.68422">
        <ele>72.24</ele>
        <time>2016-07-14T08:29:23Z</time>
      </trkpt>
      <trkpt lat="44.24737" lon="0.68415">
        <ele>72.24</ele>
        <time>2016-07-14T08:29:34Z</time>
      </trkpt>
      <trkpt lat="44.24729" lon="0.68408">
        <ele>72.24</ele>
        <time>2016-07-14T08:29:48Z</time>
      </trkpt>
      <trkpt lat="44.24719" lon="0.68395">
        <ele>71.76</ele>
        <time>2016-07-14T08:30:07Z</time>
      </trkpt>
      <trkpt lat="44.24712" lon="0.68384">
        <ele>70.79</ele>
        <time>2016-07-14T08:30:19Z</time>
      </trkpt>
      <trkpt lat="44.24703" lon="0.68386">
        <ele>70.79</ele>
        <time>2016-07-14T08:30:30Z</time>
      </trkpt>
      <trkpt lat="44.24689" lon="0.68387">
        <ele>70.79</ele>
        <time>2016-07-14T08:30:40Z</time>
      </trkpt>
      <trkpt lat="44.24679" lon="0.68388">
        <ele>70.79</ele>
        <time>2016-07-14T08:30:49Z</time>
      </trkpt>
      <trkpt lat="44.24669" lon="0.68391">
        <ele>70.79</ele>
        <time>2016-07-14T08:30:59Z</time>
      </trkpt>
      <trkpt lat="44.2466" lon="0.68396">
        <ele>70.79</ele>
        <time>2016-07-14T08:31:09Z</time>
      </trkpt>
      <trkpt lat="44.24652" lon="0.68406">
        <ele>70.79</ele>
        <time>2016-07-14T08:31:19Z</time>
      </trkpt>
      <trkpt lat="44.24646" lon="0.68417">
        <ele>70.79</ele>
        <time>2016-07-14T08:31:30Z</time>
      </trkpt>
      <trkpt lat="44.24641" lon="0.68429">
        <ele>70.79</ele>
        <time>2016-07-14T08:31:41Z</time>
      </trkpt>
      <trkpt lat="44.24646" lon="0.68458">
        <ele>71.76</ele>
        <time>2016-07-14T08:33:49Z</time>
      </trkpt>
      <trkpt lat="44.2465" lon="0.68477">
        <ele>72.24</ele>
        <time>2016-07-14T08:34:09Z</time>
      </trkpt>
      <trkpt lat="44.24653" lon="0.68494">
        <ele>73.2</ele>
        <time>2016-07-14T08:34:45Z</time>
      </trkpt>
      <trkpt lat="44.24655" lon="0.68508">
        <ele>74.64</ele>
        <time>2016-07-14T08:34:58Z</time>
      </trkpt>
      <trkpt lat="44.24654" lon="0.68526">
        <ele>75.6</ele>
        <time>2016-07-14T08:35:16Z</time>
      </trkpt>
      <trkpt lat="44.24654" lon="0.68545">
        <ele>76.56</ele>
        <time>2016-07-14T08:35:32Z</time>
      </trkpt>
      <trkpt lat="44.24651" lon="0.68563">
        <ele>78</ele>
        <time>2016-07-14T08:35:49Z</time>
      </trkpt>
      <trkpt lat="44.24647" lon="0.6858">
        <ele>78.97</ele>
        <time>2016-07-14T08:36:06Z</time>
      </trkpt>
      <trkpt lat="44.24638" lon="0.68601">
        <ele>81.37</ele>
        <time>2016-07-14T08:36:31Z</time>
      </trkpt>
      <trkpt lat="44.24632" lon="0.68635">
        <ele>82.81</ele>
        <time>2016-07-14T08:36:57Z</time>
      </trkpt>
      <trkpt lat="44.24619" lon="0.68669">
        <ele>85.21</ele>
        <time>2016-07-14T08:37:44Z</time>
      </trkpt>
      <trkpt lat="44.24603" lon="0.68694">
        <ele>87.62</ele>
        <time>2016-07-14T08:38:18Z</time>
      </trkpt>
      <trkpt lat="44.24517" lon="0.6884">
        <ele>104.92</ele>
        <time>2016-07-14T08:42:25Z</time>
      </trkpt>
      <trkpt lat="44.24514" lon="0.68877">
        <ele>106.36</ele>
        <time>2016-07-14T08:43:13Z</time>
      </trkpt>
      <trkpt lat="44.24591" lon="0.68916">
        <ele>117.9</ele>
        <time>2016-07-14T08:46:07Z</time>
      </trkpt>
      <trkpt lat="44.24623" lon="0.68917">
        <ele>121.74</ele>
        <time>2016-07-14T08:46:59Z</time>
      </trkpt>
      <trkpt lat="44.24619" lon="0.68928">
        <ele>124.15</ele>
        <time>2016-07-14T08:47:22Z</time>
      </trkpt>
      <trkpt lat="44.2461" lon="0.68933">
        <ele>125.11</ele>
        <time>2016-07-14T08:47:35Z</time>
      </trkpt>
      <trkpt lat="44.24598" lon="0.68941">
        <ele>126.55</ele>
        <time>2016-07-14T08:47:50Z</time>
      </trkpt>
      <trkpt lat="44.24587" lon="0.68941">
        <ele>126.07</ele>
        <time>2016-07-14T08:48:46Z</time>
      </trkpt>
      <trkpt lat="44.24583" lon="0.68955">
        <ele>127.03</ele>
        <time>2016-07-14T08:50:39Z</time>
      </trkpt>
      <trkpt lat="44.24564" lon="0.6897">
        <ele>127.03</ele>
        <time>2016-07-14T08:51:04Z</time>
      </trkpt>
      <trkpt lat="44.24554" lon="0.68978">
        <ele>127.03</ele>
        <time>2016-07-14T08:51:17Z</time>
      </trkpt>
      <trkpt lat="44.24546" lon="0.68988">
        <ele>128.95</ele>
        <time>2016-07-14T08:51:28Z</time>
      </trkpt>
      <trkpt lat="44.2454" lon="0.68999">
        <ele>129.43</ele>
        <time>2016-07-14T08:51:39Z</time>
      </trkpt>
      <trkpt lat="44.24534" lon="0.69012">
        <ele>131.36</ele>
        <time>2016-07-14T08:51:53Z</time>
      </trkpt>
      <trkpt lat="44.24514" lon="0.69047">
        <ele>140.01</ele>
        <time>2016-07-14T08:53:25Z</time>
      </trkpt>
      <trkpt lat="44.24477" lon="0.69041">
        <ele>148.18</ele>
        <time>2016-07-14T08:54:51Z</time>
      </trkpt>
      <trkpt lat="44.24457" lon="0.69029">
        <ele>151.06</ele>
        <time>2016-07-14T08:55:27Z</time>
      </trkpt>
      <trkpt lat="44.24448" lon="0.69044">
        <ele>152.99</ele>
        <time>2016-07-14T08:55:44Z</time>
      </trkpt>
      <trkpt lat="44.24447" lon="0.6906">
        <ele>153.95</ele>
        <time>2016-07-14T08:55:57Z</time>
      </trkpt>
      <trkpt lat="44.24453" lon="0.69074">
        <ele>155.39</ele>
        <time>2016-07-14T08:56:11Z</time>
      </trkpt>
      <trkpt lat="44.24453" lon="0.69088">
        <ele>155.87</ele>
        <time>2016-07-14T08:56:24Z</time>
      </trkpt>
      <trkpt lat="44.24447" lon="0.691">
        <ele>156.35</ele>
        <time>2016-07-14T08:56:36Z</time>
      </trkpt>
      <trkpt lat="44.24437" lon="0.69106">
        <ele>157.31</ele>
        <time>2016-07-14T08:56:58Z</time>
      </trkpt>
      <trkpt lat="44.24428" lon="0.69099">
        <ele>157.31</ele>
        <time>2016-07-14T08:57:07Z</time>
      </trkpt>
      <trkpt lat="44.24419" lon="0.6909">
        <ele>157.31</ele>
        <time>2016-07-14T08:57:17Z</time>
      </trkpt>
      <trkpt lat="44.2441" lon="0.69082">
        <ele>157.31</ele>
        <time>2016-07-14T08:57:26Z</time>
      </trkpt>
      <trkpt lat="44.244" lon="0.69075">
        <ele>157.31</ele>
        <time>2016-07-14T08:57:36Z</time>
      </trkpt>
      <trkpt lat="44.24392" lon="0.69068">
        <ele>155.87</ele>
        <time>2016-07-14T08:57:47Z</time>
      </trkpt>
      <trkpt lat="44.24384" lon="0.6906">
        <ele>155.87</ele>
        <time>2016-07-14T08:57:55Z</time>
      </trkpt>
      <trkpt lat="44.24375" lon="0.69053">
        <ele>155.87</ele>
        <time>2016-07-14T08:58:04Z</time>
      </trkpt>
      <trkpt lat="44.24367" lon="0.69046">
        <ele>155.87</ele>
        <time>2016-07-14T08:58:13Z</time>
      </trkpt>
      <trkpt lat="44.24358" lon="0.6904">
        <ele>155.87</ele>
        <time>2016-07-14T08:58:22Z</time>
      </trkpt>
      <trkpt lat="44.24349" lon="0.69031">
        <ele>155.87</ele>
        <time>2016-07-14T08:58:32Z</time>
      </trkpt>
      <trkpt lat="44.2434" lon="0.69024">
        <ele>155.87</ele>
        <time>2016-07-14T08:58:41Z</time>
      </trkpt>
      <trkpt lat="44.24331" lon="0.69017">
        <ele>155.87</ele>
        <time>2016-07-14T08:58:50Z</time>
      </trkpt>
      <trkpt lat="44.24323" lon="0.6901">
        <ele>155.87</ele>
        <time>2016-07-14T08:58:59Z</time>
      </trkpt>
      <trkpt lat="44.24316" lon="0.69003">
        <ele>157.31</ele>
        <time>2016-07-14T08:59:08Z</time>
      </trkpt>
      <trkpt lat="44.24308" lon="0.68995">
        <ele>157.79</ele>
        <time>2016-07-14T08:59:18Z</time>
      </trkpt>
      <trkpt lat="44.243" lon="0.68988">
        <ele>157.79</ele>
        <time>2016-07-14T08:59:28Z</time>
      </trkpt>
      <trkpt lat="44.24292" lon="0.6898">
        <ele>158.27</ele>
        <time>2016-07-14T08:59:39Z</time>
      </trkpt>
      <trkpt lat="44.24284" lon="0.68972">
        <ele>159.24</ele>
        <time>2016-07-14T08:59:49Z</time>
      </trkpt>
      <trkpt lat="44.24277" lon="0.68965">
        <ele>159.72</ele>
        <time>2016-07-14T08:59:57Z</time>
      </trkpt>
      <trkpt lat="44.2427" lon="0.68957">
        <ele>160.2</ele>
        <time>2016-07-14T09:00:05Z</time>
      </trkpt>
      <trkpt lat="44.24262" lon="0.68951">
        <ele>161.64</ele>
        <time>2016-07-14T09:00:17Z</time>
      </trkpt>
      <trkpt lat="44.24254" lon="0.68944">
        <ele>162.6</ele>
        <time>2016-07-14T09:00:28Z</time>
      </trkpt>
      <trkpt lat="44.24245" lon="0.68939">
        <ele>163.56</ele>
        <time>2016-07-14T09:00:39Z</time>
      </trkpt>
      <trkpt lat="44.24236" lon="0.68934">
        <ele>164.52</ele>
        <time>2016-07-14T09:00:50Z</time>
      </trkpt>
      <trkpt lat="44.24227" lon="0.68929">
        <ele>164.52</ele>
        <time>2016-07-14T09:01:00Z</time>
      </trkpt>
      <trkpt lat="44.24218" lon="0.68922">
        <ele>165.48</ele>
        <time>2016-07-14T09:01:11Z</time>
      </trkpt>
      <trkpt lat="44.24209" lon="0.68916">
        <ele>166.45</ele>
        <time>2016-07-14T09:01:20Z</time>
      </trkpt>
      <trkpt lat="44.242" lon="0.6891">
        <ele>166.45</ele>
        <time>2016-07-14T09:01:29Z</time>
      </trkpt>
      <trkpt lat="44.24191" lon="0.68907">
        <ele>166.45</ele>
        <time>2016-07-14T09:01:37Z</time>
      </trkpt>
      <trkpt lat="44.24182" lon="0.68901">
        <ele>165.48</ele>
        <time>2016-07-14T09:01:46Z</time>
      </trkpt>
      <trkpt lat="44.24173" lon="0.6889">
        <ele>164.52</ele>
        <time>2016-07-14T09:01:57Z</time>
      </trkpt>
      <trkpt lat="44.24164" lon="0.68881">
        <ele>163.56</ele>
        <time>2016-07-14T09:02:06Z</time>
      </trkpt>
      <trkpt lat="44.24156" lon="0.68875">
        <ele>163.08</ele>
        <time>2016-07-14T09:02:14Z</time>
      </trkpt>
      <trkpt lat="44.2415" lon="0.68866">
        <ele>162.6</ele>
        <time>2016-07-14T09:02:23Z</time>
      </trkpt>
      <trkpt lat="44.24141" lon="0.6886">
        <ele>161.64</ele>
        <time>2016-07-14T09:02:33Z</time>
      </trkpt>
      <trkpt lat="44.24133" lon="0.68852">
        <ele>161.16</ele>
        <time>2016-07-14T09:02:39Z</time>
      </trkpt>
      <trkpt lat="44.24126" lon="0.68846">
        <ele>160.68</ele>
        <time>2016-07-14T09:02:46Z</time>
      </trkpt>
      <trkpt lat="44.24119" lon="0.68838">
        <ele>160.2</ele>
        <time>2016-07-14T09:02:56Z</time>
      </trkpt>
      <trkpt lat="44.24111" lon="0.68831">
        <ele>158.75</ele>
        <time>2016-07-14T09:03:04Z</time>
      </trkpt>
      <trkpt lat="44.24102" lon="0.68824">
        <ele>158.75</ele>
        <time>2016-07-14T09:03:13Z</time>
      </trkpt>
      <trkpt lat="44.24094" lon="0.68815">
        <ele>158.27</ele>
        <time>2016-07-14T09:03:22Z</time>
      </trkpt>
      <trkpt lat="44.24085" lon="0.68809">
        <ele>157.31</ele>
        <time>2016-07-14T09:03:30Z</time>
      </trkpt>
      <trkpt lat="44.24078" lon="0.68802">
        <ele>156.83</ele>
        <time>2016-07-14T09:03:38Z</time>
      </trkpt>
      <trkpt lat="44.2407" lon="0.68797">
        <ele>156.35</ele>
        <time>2016-07-14T09:03:48Z</time>
      </trkpt>
      <trkpt lat="44.24063" lon="0.68785">
        <ele>154.91</ele>
        <time>2016-07-14T09:04:00Z</time>
      </trkpt>
      <trkpt lat="44.24056" lon="0.68775">
        <ele>154.43</ele>
        <time>2016-07-14T09:04:10Z</time>
      </trkpt>
      <trkpt lat="44.24049" lon="0.68764">
        <ele>153.95</ele>
        <time>2016-07-14T09:04:18Z</time>
      </trkpt>
      <trkpt lat="44.24042" lon="0.68755">
        <ele>153.95</ele>
        <time>2016-07-14T09:04:28Z</time>
      </trkpt>
      <trkpt lat="44.24035" lon="0.68742">
        <ele>153.47</ele>
        <time>2016-07-14T09:04:38Z</time>
      </trkpt>
      <trkpt lat="44.24027" lon="0.68732">
        <ele>153.47</ele>
        <time>2016-07-14T09:04:47Z</time>
      </trkpt>
      <trkpt lat="44.24022" lon="0.68719">
        <ele>152.51</ele>
        <time>2016-07-14T09:04:58Z</time>
      </trkpt>
      <trkpt lat="44.24017" lon="0.68705">
        <ele>152.03</ele>
        <time>2016-07-14T09:05:09Z</time>
      </trkpt>
      <trkpt lat="44.24012" lon="0.68692">
        <ele>151.06</ele>
        <time>2016-07-14T09:05:18Z</time>
      </trkpt>
      <trkpt lat="44.24006" lon="0.68679">
        <ele>151.06</ele>
        <time>2016-07-14T09:05:27Z</time>
      </trkpt>
      <trkpt lat="44.24001" lon="0.68666">
        <ele>150.58</ele>
        <time>2016-07-14T09:05:37Z</time>
      </trkpt>
      <trkpt lat="44.23995" lon="0.68649">
        <ele>150.1</ele>
        <time>2016-07-14T09:05:50Z</time>
      </trkpt>
      <trkpt lat="44.23989" lon="0.68639">
        <ele>149.62</ele>
        <time>2016-07-14T09:05:59Z</time>
      </trkpt>
      <trkpt lat="44.23985" lon="0.68626">
        <ele>149.14</ele>
        <time>2016-07-14T09:06:10Z</time>
      </trkpt>
      <trkpt lat="44.23978" lon="0.68615">
        <ele>148.66</ele>
        <time>2016-07-14T09:06:20Z</time>
      </trkpt>
      <trkpt lat="44.23972" lon="0.68602">
        <ele>147.7</ele>
        <time>2016-07-14T09:06:32Z</time>
      </trkpt>
      <trkpt lat="44.23963" lon="0.68589">
        <ele>146.74</ele>
        <time>2016-07-14T09:06:43Z</time>
      </trkpt>
      <trkpt lat="44.23955" lon="0.68577">
        <ele>145.3</ele>
        <time>2016-07-14T09:06:54Z</time>
      </trkpt>
      <trkpt lat="44.23948" lon="0.68564">
        <ele>144.82</ele>
        <time>2016-07-14T09:07:04Z</time>
      </trkpt>
      <trkpt lat="44.23941" lon="0.6855">
        <ele>144.34</ele>
        <time>2016-07-14T09:07:16Z</time>
      </trkpt>
      <trkpt lat="44.23936" lon="0.68528">
        <ele>144.34</ele>
        <time>2016-07-14T09:07:31Z</time>
      </trkpt>
      <trkpt lat="44.23934" lon="0.6851">
        <ele>145.78</ele>
        <time>2016-07-14T09:07:44Z</time>
      </trkpt>
      <trkpt lat="44.23927" lon="0.68491">
        <ele>146.26</ele>
        <time>2016-07-14T09:08:00Z</time>
      </trkpt>
      <trkpt lat="44.2392" lon="0.68478">
        <ele>146.26</ele>
        <time>2016-07-14T09:08:12Z</time>
      </trkpt>
      <trkpt lat="44.23907" lon="0.68468">
        <ele>144.34</ele>
        <time>2016-07-14T09:08:27Z</time>
      </trkpt>
      <trkpt lat="44.23897" lon="0.68455">
        <ele>144.34</ele>
        <time>2016-07-14T09:08:41Z</time>
      </trkpt>
      <trkpt lat="44.23885" lon="0.6844">
        <ele>145.3</ele>
        <time>2016-07-14T09:09:00Z</time>
      </trkpt>
      <trkpt lat="44.2387" lon="0.68423">
        <ele>140.01</ele>
        <time>2016-07-14T09:09:34Z</time>
      </trkpt>
      <trkpt lat="44.23868" lon="0.68391">
        <ele>133.28</ele>
        <time>2016-07-14T09:10:18Z</time>
      </trkpt>
      <trkpt lat="44.23862" lon="0.6838">
        <ele>130.88</ele>
        <time>2016-07-14T09:10:30Z</time>
      </trkpt>
      <trkpt lat="44.23858" lon="0.68369">
        <ele>129.43</ele>
        <time>2016-07-14T09:10:42Z</time>
      </trkpt>
      <trkpt lat="44.23853" lon="0.68357">
        <ele>126.55</ele>
        <time>2016-07-14T09:10:54Z</time>
      </trkpt>
      <trkpt lat="44.23841" lon="0.6835">
        <ele>124.15</ele>
        <time>2016-07-14T09:11:07Z</time>
      </trkpt>
      <trkpt lat="44.2383" lon="0.68348">
        <ele>122.22</ele>
        <time>2016-07-14T09:11:36Z</time>
      </trkpt>
      <trkpt lat="44.23819" lon="0.68349">
        <ele>120.78</ele>
        <time>2016-07-14T09:11:47Z</time>
      </trkpt>
      <trkpt lat="44.23809" lon="0.6835">
        <ele>119.82</ele>
        <time>2016-07-14T09:11:57Z</time>
      </trkpt>
      <trkpt lat="44.23798" lon="0.6835">
        <ele>117.9</ele>
        <time>2016-07-14T09:12:08Z</time>
      </trkpt>
      <trkpt lat="44.23784" lon="0.68346">
        <ele>116.46</ele>
        <time>2016-07-14T09:12:21Z</time>
      </trkpt>
      <trkpt lat="44.23775" lon="0.68339">
        <ele>114.53</ele>
        <time>2016-07-14T09:12:32Z</time>
      </trkpt>
      <trkpt lat="44.23768" lon="0.68328">
        <ele>113.09</ele>
        <time>2016-07-14T09:12:43Z</time>
      </trkpt>
      <trkpt lat="44.2376" lon="0.68319">
        <ele>111.65</ele>
        <time>2016-07-14T09:12:54Z</time>
      </trkpt>
      <trkpt lat="44.23751" lon="0.68315">
        <ele>110.21</ele>
        <time>2016-07-14T09:13:04Z</time>
      </trkpt>
      <trkpt lat="44.23742" lon="0.68308">
        <ele>108.77</ele>
        <time>2016-07-14T09:13:16Z</time>
      </trkpt>
      <trkpt lat="44.23739" lon="0.68295">
        <ele>107.32</ele>
        <time>2016-07-14T09:13:28Z</time>
      </trkpt>
      <trkpt lat="44.23737" lon="0.68283">
        <ele>106.36</ele>
        <time>2016-07-14T09:13:38Z</time>
      </trkpt>
      <trkpt lat="44.23734" lon="0.68271">
        <ele>105.88</ele>
        <time>2016-07-14T09:13:48Z</time>
      </trkpt>
      <trkpt lat="44.23732" lon="0.68253">
        <ele>104.44</ele>
        <time>2016-07-14T09:14:01Z</time>
      </trkpt>
      <trkpt lat="44.2373" lon="0.68237">
        <ele>102.52</ele>
        <time>2016-07-14T09:14:12Z</time>
      </trkpt>
      <trkpt lat="44.23726" lon="0.68221">
        <ele>101.56</ele>
        <time>2016-07-14T09:14:26Z</time>
      </trkpt>
      <trkpt lat="44.23724" lon="0.68206">
        <ele>100.6</ele>
        <time>2016-07-14T09:14:37Z</time>
      </trkpt>
      <trkpt lat="44.23722" lon="0.68192">
        <ele>99.63</ele>
        <time>2016-07-14T09:14:47Z</time>
      </trkpt>
      <trkpt lat="44.23718" lon="0.68181">
        <ele>98.67</ele>
        <time>2016-07-14T09:14:55Z</time>
      </trkpt>
      <trkpt lat="44.23712" lon="0.68168">
        <ele>97.71</ele>
        <time>2016-07-14T09:15:07Z</time>
      </trkpt>
      <trkpt lat="44.23703" lon="0.68161">
        <ele>95.79</ele>
        <time>2016-07-14T09:15:19Z</time>
      </trkpt>
      <trkpt lat="44.23691" lon="0.68159">
        <ele>94.35</ele>
        <time>2016-07-14T09:15:31Z</time>
      </trkpt>
      <trkpt lat="44.23679" lon="0.68158">
        <ele>92.42</ele>
        <time>2016-07-14T09:15:43Z</time>
      </trkpt>
      <trkpt lat="44.23667" lon="0.68155">
        <ele>90.02</ele>
        <time>2016-07-14T09:15:58Z</time>
      </trkpt>
      <trkpt lat="44.23658" lon="0.68157">
        <ele>88.1</ele>
        <time>2016-07-14T09:16:09Z</time>
      </trkpt>
      <trkpt lat="44.23648" lon="0.68164">
        <ele>87.14</ele>
        <time>2016-07-14T09:16:21Z</time>
      </trkpt>
      <trkpt lat="44.2364" lon="0.68175">
        <ele>85.69</ele>
        <time>2016-07-14T09:16:32Z</time>
      </trkpt>
      <trkpt lat="44.2363" lon="0.68186">
        <ele>85.21</ele>
        <time>2016-07-14T09:16:42Z</time>
      </trkpt>
      <trkpt lat="44.23622" lon="0.68195">
        <ele>84.73</ele>
        <time>2016-07-14T09:16:51Z</time>
      </trkpt>
      <trkpt lat="44.23614" lon="0.68202">
        <ele>84.73</ele>
        <time>2016-07-14T09:17:01Z</time>
      </trkpt>
      <trkpt lat="44.23606" lon="0.68208">
        <ele>84.73</ele>
        <time>2016-07-14T09:17:10Z</time>
      </trkpt>
      <trkpt lat="44.23597" lon="0.6821">
        <ele>84.73</ele>
        <time>2016-07-14T09:17:19Z</time>
      </trkpt>
      <trkpt lat="44.23587" lon="0.68212">
        <ele>84.73</ele>
        <time>2016-07-14T09:17:28Z</time>
      </trkpt>
      <trkpt lat="44.23577" lon="0.68214">
        <ele>84.73</ele>
        <time>2016-07-14T09:17:37Z</time>
      </trkpt>
      <trkpt lat="44.23571" lon="0.68207">
        <ele>84.73</ele>
        <time>2016-07-14T09:17:50Z</time>
      </trkpt>
      <trkpt lat="44.23566" lon="0.68198">
        <ele>84.73</ele>
        <time>2016-07-14T09:17:58Z</time>
      </trkpt>
      <trkpt lat="44.23559" lon="0.6819">
        <ele>83.29</ele>
        <time>2016-07-14T09:18:07Z</time>
      </trkpt>
      <trkpt lat="44.23553" lon="0.68182">
        <ele>82.81</ele>
        <time>2016-07-14T09:18:16Z</time>
      </trkpt>
      <trkpt lat="44.23547" lon="0.68173">
        <ele>82.81</ele>
        <time>2016-07-14T09:18:25Z</time>
      </trkpt>
      <trkpt lat="44.23541" lon="0.68164">
        <ele>82.33</ele>
        <time>2016-07-14T09:18:34Z</time>
      </trkpt>
      <trkpt lat="44.23532" lon="0.68154">
        <ele>81.37</ele>
        <time>2016-07-14T09:18:45Z</time>
      </trkpt>
      <trkpt lat="44.23526" lon="0.68145">
        <ele>80.89</ele>
        <time>2016-07-14T09:18:55Z</time>
      </trkpt>
      <trkpt lat="44.23518" lon="0.68138">
        <ele>79.93</ele>
        <time>2016-07-14T09:19:06Z</time>
      </trkpt>
      <trkpt lat="44.23509" lon="0.68136">
        <ele>79.45</ele>
        <time>2016-07-14T09:19:17Z</time>
      </trkpt>
      <trkpt lat="44.23498" lon="0.68134">
        <ele>78</ele>
        <time>2016-07-14T09:19:29Z</time>
      </trkpt>
      <trkpt lat="44.23492" lon="0.68124">
        <ele>77.04</ele>
        <time>2016-07-14T09:19:40Z</time>
      </trkpt>
      <trkpt lat="44.23486" lon="0.68114">
        <ele>75.6</ele>
        <time>2016-07-14T09:19:51Z</time>
      </trkpt>
      <trkpt lat="44.2348" lon="0.68104">
        <ele>74.16</ele>
        <time>2016-07-14T09:20:01Z</time>
      </trkpt>
      <trkpt lat="44.23473" lon="0.68094">
        <ele>73.2</ele>
        <time>2016-07-14T09:20:11Z</time>
      </trkpt>
      <trkpt lat="44.23469" lon="0.68082">
        <ele>72.24</ele>
        <time>2016-07-14T09:20:21Z</time>
      </trkpt>
      <trkpt lat="44.23461" lon="0.6807">
        <ele>71.76</ele>
        <time>2016-07-14T09:20:33Z</time>
      </trkpt>
      <trkpt lat="44.23455" lon="0.68059">
        <ele>70.79</ele>
        <time>2016-07-14T09:20:44Z</time>
      </trkpt>
      <trkpt lat="44.23448" lon="0.68046">
        <ele>69.83</ele>
        <time>2016-07-14T09:20:59Z</time>
      </trkpt>
      <trkpt lat="44.23442" lon="0.68032">
        <ele>68.39</ele>
        <time>2016-07-14T09:21:11Z</time>
      </trkpt>
      <trkpt lat="44.23437" lon="0.68019">
        <ele>67.43</ele>
        <time>2016-07-14T09:21:20Z</time>
      </trkpt>
      <trkpt lat="44.23427" lon="0.68011">
        <ele>66.95</ele>
        <time>2016-07-14T09:21:31Z</time>
      </trkpt>
      <trkpt lat="44.23417" lon="0.68002">
        <ele>66.47</ele>
        <time>2016-07-14T09:21:43Z</time>
      </trkpt>
      <trkpt lat="44.23412" lon="0.67989">
        <ele>66.47</ele>
        <time>2016-07-14T09:21:54Z</time>
      </trkpt>
      <trkpt lat="44.23413" lon="0.67975">
        <ele>66.47</ele>
        <time>2016-07-14T09:22:08Z</time>
      </trkpt>
      <trkpt lat="44.2341" lon="0.67961">
        <ele>65.99</ele>
        <time>2016-07-14T09:22:18Z</time>
      </trkpt>
      <trkpt lat="44.23412" lon="0.67948">
        <ele>65.99</ele>
        <time>2016-07-14T09:22:28Z</time>
      </trkpt>
      <trkpt lat="44.23414" lon="0.67935">
        <ele>65.99</ele>
        <time>2016-07-14T09:22:37Z</time>
      </trkpt>
      <trkpt lat="44.23416" lon="0.67921">
        <ele>65.99</ele>
        <time>2016-07-14T09:22:47Z</time>
      </trkpt>
      <trkpt lat="44.23419" lon="0.67908">
        <ele>65.99</ele>
        <time>2016-07-14T09:22:57Z</time>
      </trkpt>
      <trkpt lat="44.2342" lon="0.67895">
        <ele>65.99</ele>
        <time>2016-07-14T09:23:05Z</time>
      </trkpt>
      <trkpt lat="44.23422" lon="0.67881">
        <ele>65.51</ele>
        <time>2016-07-14T09:23:15Z</time>
      </trkpt>
      <trkpt lat="44.23423" lon="0.67867">
        <ele>65.51</ele>
        <time>2016-07-14T09:23:25Z</time>
      </trkpt>
      <trkpt lat="44.23426" lon="0.67853">
        <ele>65.51</ele>
        <time>2016-07-14T09:23:35Z</time>
      </trkpt>
      <trkpt lat="44.23429" lon="0.6784">
        <ele>65.03</ele>
        <time>2016-07-14T09:23:45Z</time>
      </trkpt>
      <trkpt lat="44.2343" lon="0.67825">
        <ele>65.03</ele>
        <time>2016-07-14T09:23:55Z</time>
      </trkpt>
      <trkpt lat="44.23433" lon="0.67812">
        <ele>65.03</ele>
        <time>2016-07-14T09:24:05Z</time>
      </trkpt>
      <trkpt lat="44.23436" lon="0.67799">
        <ele>65.03</ele>
        <time>2016-07-14T09:24:16Z</time>
      </trkpt>
      <trkpt lat="44.23438" lon="0.67787">
        <ele>65.99</ele>
        <time>2016-07-14T09:24:26Z</time>
      </trkpt>
      <trkpt lat="44.2344" lon="0.67774">
        <ele>65.99</ele>
        <time>2016-07-14T09:24:37Z</time>
      </trkpt>
      <trkpt lat="44.23442" lon="0.67761">
        <ele>65.99</ele>
        <time>2016-07-14T09:24:48Z</time>
      </trkpt>
      <trkpt lat="44.23444" lon="0.67748">
        <ele>66.95</ele>
        <time>2016-07-14T09:24:59Z</time>
      </trkpt>
      <trkpt lat="44.23446" lon="0.67734">
        <ele>66.95</ele>
        <time>2016-07-14T09:25:11Z</time>
      </trkpt>
      <trkpt lat="44.23451" lon="0.67722">
        <ele>67.43</ele>
        <time>2016-07-14T09:25:23Z</time>
      </trkpt>
      <trkpt lat="44.23455" lon="0.67709">
        <ele>67.43</ele>
        <time>2016-07-14T09:25:34Z</time>
      </trkpt>
      <trkpt lat="44.23456" lon="0.67694">
        <ele>67.43</ele>
        <time>2016-07-14T09:25:44Z</time>
      </trkpt>
      <trkpt lat="44.2345" lon="0.67683">
        <ele>67.43</ele>
        <time>2016-07-14T09:25:53Z</time>
      </trkpt>
      <trkpt lat="44.23442" lon="0.67675">
        <ele>67.43</ele>
        <time>2016-07-14T09:26:03Z</time>
      </trkpt>
      <trkpt lat="44.23434" lon="0.67666">
        <ele>67.43</ele>
        <time>2016-07-14T09:26:14Z</time>
      </trkpt>
      <trkpt lat="44.23425" lon="0.67662">
        <ele>67.43</ele>
        <time>2016-07-14T09:26:23Z</time>
      </trkpt>
      <trkpt lat="44.23417" lon="0.67654">
        <ele>67.91</ele>
        <time>2016-07-14T09:26:33Z</time>
      </trkpt>
      <trkpt lat="44.23412" lon="0.67644">
        <ele>67.91</ele>
        <time>2016-07-14T09:26:43Z</time>
      </trkpt>
      <trkpt lat="44.23405" lon="0.67636">
        <ele>66.47</ele>
        <time>2016-07-14T09:26:52Z</time>
      </trkpt>
      <trkpt lat="44.23395" lon="0.67633">
        <ele>66.47</ele>
        <time>2016-07-14T09:27:01Z</time>
      </trkpt>
      <trkpt lat="44.23385" lon="0.67628">
        <ele>66.47</ele>
        <time>2016-07-14T09:27:09Z</time>
      </trkpt>
      <trkpt lat="44.23378" lon="0.6762">
        <ele>66.47</ele>
        <time>2016-07-14T09:27:20Z</time>
      </trkpt>
      <trkpt lat="44.23371" lon="0.67612">
        <ele>66.47</ele>
        <time>2016-07-14T09:27:29Z</time>
      </trkpt>
      <trkpt lat="44.23364" lon="0.67602">
        <ele>67.91</ele>
        <time>2016-07-14T09:27:39Z</time>
      </trkpt>
      <trkpt lat="44.23357" lon="0.67593">
        <ele>67.91</ele>
        <time>2016-07-14T09:27:48Z</time>
      </trkpt>
      <trkpt lat="44.2335" lon="0.67582">
        <ele>67.91</ele>
        <time>2016-07-14T09:27:58Z</time>
      </trkpt>
      <trkpt lat="44.23344" lon="0.6757">
        <ele>67.43</ele>
        <time>2016-07-14T09:28:08Z</time>
      </trkpt>
      <trkpt lat="44.23338" lon="0.67559">
        <ele>67.43</ele>
        <time>2016-07-14T09:28:18Z</time>
      </trkpt>
      <trkpt lat="44.23331" lon="0.67549">
        <ele>67.43</ele>
        <time>2016-07-14T09:28:28Z</time>
      </trkpt>
      <trkpt lat="44.23324" lon="0.67539">
        <ele>67.43</ele>
        <time>2016-07-14T09:28:38Z</time>
      </trkpt>
      <trkpt lat="44.23316" lon="0.67529">
        <ele>67.43</ele>
        <time>2016-07-14T09:28:48Z</time>
      </trkpt>
      <trkpt lat="44.23308" lon="0.67518">
        <ele>67.43</ele>
        <time>2016-07-14T09:28:59Z</time>
      </trkpt>
      <trkpt lat="44.233" lon="0.67509">
        <ele>67.43</ele>
        <time>2016-07-14T09:29:09Z</time>
      </trkpt>
      <trkpt lat="44.2329" lon="0.67502">
        <ele>67.43</ele>
        <time>2016-07-14T09:29:20Z</time>
      </trkpt>
      <trkpt lat="44.2328" lon="0.67497">
        <ele>67.43</ele>
        <time>2016-07-14T09:29:30Z</time>
      </trkpt>
      <trkpt lat="44.23271" lon="0.67489">
        <ele>67.43</ele>
        <time>2016-07-14T09:29:40Z</time>
      </trkpt>
      <trkpt lat="44.23262" lon="0.67481">
        <ele>67.43</ele>
        <time>2016-07-14T09:29:50Z</time>
      </trkpt>
      <trkpt lat="44.23254" lon="0.67474">
        <ele>67.43</ele>
        <time>2016-07-14T09:30:00Z</time>
      </trkpt>
      <trkpt lat="44.23247" lon="0.67464">
        <ele>67.43</ele>
        <time>2016-07-14T09:30:11Z</time>
      </trkpt>
      <trkpt lat="44.2324" lon="0.67454">
        <ele>67.43</ele>
        <time>2016-07-14T09:30:22Z</time>
      </trkpt>
      <trkpt lat="44.23233" lon="0.67443">
        <ele>67.91</ele>
        <time>2016-07-14T09:30:33Z</time>
      </trkpt>
      <trkpt lat="44.23225" lon="0.67431">
        <ele>68.87</ele>
        <time>2016-07-14T09:30:45Z</time>
      </trkpt>
      <trkpt lat="44.2322" lon="0.67417">
        <ele>69.35</ele>
        <time>2016-07-14T09:30:57Z</time>
      </trkpt>
      <trkpt lat="44.23214" lon="0.67405">
        <ele>70.79</ele>
        <time>2016-07-14T09:31:18Z</time>
      </trkpt>
      <trkpt lat="44.23207" lon="0.67393">
        <ele>70.79</ele>
        <time>2016-07-14T09:31:28Z</time>
      </trkpt>
      <trkpt lat="44.232" lon="0.67381">
        <ele>70.31</ele>
        <time>2016-07-14T09:31:39Z</time>
      </trkpt>
      <trkpt lat="44.23193" lon="0.6737">
        <ele>70.31</ele>
        <time>2016-07-14T09:31:51Z</time>
      </trkpt>
      <trkpt lat="44.23184" lon="0.6736">
        <ele>70.31</ele>
        <time>2016-07-14T09:32:03Z</time>
      </trkpt>
      <trkpt lat="44.23178" lon="0.67348">
        <ele>70.31</ele>
        <time>2016-07-14T09:32:14Z</time>
      </trkpt>
      <trkpt lat="44.23172" lon="0.67335">
        <ele>70.79</ele>
        <time>2016-07-14T09:32:26Z</time>
      </trkpt>
      <trkpt lat="44.23167" lon="0.67319">
        <ele>71.27</ele>
        <time>2016-07-14T09:32:40Z</time>
      </trkpt>
      <trkpt lat="44.23159" lon="0.67306">
        <ele>71.27</ele>
        <time>2016-07-14T09:32:53Z</time>
      </trkpt>
      <trkpt lat="44.23153" lon="0.67292">
        <ele>71.27</ele>
        <time>2016-07-14T09:33:05Z</time>
      </trkpt>
      <trkpt lat="44.23146" lon="0.67279">
        <ele>71.76</ele>
        <time>2016-07-14T09:33:17Z</time>
      </trkpt>
      <trkpt lat="44.2314" lon="0.67267">
        <ele>71.76</ele>
        <time>2016-07-14T09:33:27Z</time>
      </trkpt>
      <trkpt lat="44.23136" lon="0.67255">
        <ele>71.76</ele>
        <time>2016-07-14T09:33:37Z</time>
      </trkpt>
      <trkpt lat="44.23132" lon="0.6724">
        <ele>71.76</ele>
        <time>2016-07-14T09:33:47Z</time>
      </trkpt>
      <trkpt lat="44.23128" lon="0.67227">
        <ele>71.76</ele>
        <time>2016-07-14T09:33:57Z</time>
      </trkpt>
      <trkpt lat="44.23123" lon="0.67214">
        <ele>70.31</ele>
        <time>2016-07-14T09:34:07Z</time>
      </trkpt>
      <trkpt lat="44.23117" lon="0.67203">
        <ele>70.31</ele>
        <time>2016-07-14T09:34:17Z</time>
      </trkpt>
      <trkpt lat="44.23112" lon="0.67192">
        <ele>69.83</ele>
        <time>2016-07-14T09:34:28Z</time>
      </trkpt>
      <trkpt lat="44.23106" lon="0.67178">
        <ele>69.83</ele>
        <time>2016-07-14T09:34:40Z</time>
      </trkpt>
      <trkpt lat="44.23101" lon="0.67164">
        <ele>69.83</ele>
        <time>2016-07-14T09:34:52Z</time>
      </trkpt>
      <trkpt lat="44.23093" lon="0.67154">
        <ele>69.83</ele>
        <time>2016-07-14T09:35:03Z</time>
      </trkpt>
      <trkpt lat="44.23085" lon="0.67139">
        <ele>71.27</ele>
        <time>2016-07-14T09:35:18Z</time>
      </trkpt>
      <trkpt lat="44.23074" lon="0.67121">
        <ele>72.24</ele>
        <time>2016-07-14T09:35:35Z</time>
      </trkpt>
      <trkpt lat="44.2306" lon="0.67098">
        <ele>73.2</ele>
        <time>2016-07-14T09:36:02Z</time>
      </trkpt>
      <trkpt lat="44.23054" lon="0.67081">
        <ele>73.68</ele>
        <time>2016-07-14T09:36:17Z</time>
      </trkpt>
      <trkpt lat="44.23038" lon="0.67041">
        <ele>72.24</ele>
        <time>2016-07-14T09:36:51Z</time>
      </trkpt>
      <trkpt lat="44.23027" lon="0.67026">
        <ele>72.24</ele>
        <time>2016-07-14T09:37:02Z</time>
      </trkpt>
      <trkpt lat="44.2302" lon="0.67013">
        <ele>72.24</ele>
        <time>2016-07-14T09:37:12Z</time>
      </trkpt>
      <trkpt lat="44.23014" lon="0.67002">
        <ele>72.24</ele>
        <time>2016-07-14T09:37:21Z</time>
      </trkpt>
      <trkpt lat="44.23009" lon="0.66989">
        <ele>71.27</ele>
        <time>2016-07-14T09:37:31Z</time>
      </trkpt>
      <trkpt lat="44.23003" lon="0.66976">
        <ele>71.27</ele>
        <time>2016-07-14T09:37:41Z</time>
      </trkpt>
      <trkpt lat="44.22997" lon="0.66963">
        <ele>71.27</ele>
        <time>2016-07-14T09:37:52Z</time>
      </trkpt>
      <trkpt lat="44.22989" lon="0.66952">
        <ele>71.27</ele>
        <time>2016-07-14T09:38:03Z</time>
      </trkpt>
      <trkpt lat="44.22982" lon="0.6694">
        <ele>71.27</ele>
        <time>2016-07-14T09:38:14Z</time>
      </trkpt>
      <trkpt lat="44.22972" lon="0.66935">
        <ele>71.27</ele>
        <time>2016-07-14T09:38:24Z</time>
      </trkpt>
      <trkpt lat="44.22962" lon="0.6692">
        <ele>70.79</ele>
        <time>2016-07-14T09:38:37Z</time>
      </trkpt>
      <trkpt lat="44.22953" lon="0.66906">
        <ele>70.79</ele>
        <time>2016-07-14T09:38:51Z</time>
      </trkpt>
      <trkpt lat="44.22947" lon="0.66893">
        <ele>70.79</ele>
        <time>2016-07-14T09:39:03Z</time>
      </trkpt>
      <trkpt lat="44.22939" lon="0.66884">
        <ele>71.76</ele>
        <time>2016-07-14T09:39:29Z</time>
      </trkpt>
      <trkpt lat="44.22932" lon="0.6687">
        <ele>71.76</ele>
        <time>2016-07-14T09:39:45Z</time>
      </trkpt>
      <trkpt lat="44.22921" lon="0.66867">
        <ele>69.35</ele>
        <time>2016-07-14T09:40:00Z</time>
      </trkpt>
      <trkpt lat="44.22911" lon="0.66881">
        <ele>66.95</ele>
        <time>2016-07-14T09:41:19Z</time>
      </trkpt>
      <trkpt lat="44.2291" lon="0.66886">
        <ele>65.99</ele>
        <time>2016-07-14T09:41:34Z</time>
      </trkpt>
    </trkseg>
  </trk>
</gpx>